Radiosonde details



Informationen :

Serial : Y1713029
Type : Vaisala RS41-SG
Date of production : 20.04.2026
Frequency : 405.5MHz
Launchsite : -
Nearest town : Holbeach, GB (1.4km)

Altitude (Max) : 30631m at 2026-09-02 00:57:59
Speed (Max) : 65km/h at altitude 17209m

Average speed : 19km/h
Average ascent rate : 5m/s
Average descent rate : -27m/s
Ascent rate (Max) : 7.3m/s
Descent rate (Max): -41.4m/s

First frame :
DM0DOS-11 at 2026-09-02 00:13:44 at altitude 16247m (OG: 16200m)
Last frame :
DM0DOS-11 at 2026-09-02 01:08:04 at altitude 15720m (OG: 15676m)

Flighttime : 54m20s
Ascent time : 44m15s
Descent time : 10m5s
Uptime : 2h17m56s
Killtimer : 8h20m24s

Distance (Straight line distance): 16km

Distance (Route):


Frames : 606


Measurement :

Temperature : -52°C
Humidity : 3.6%
Pressure : 0hPa


Vertical profile (SkewT) :


Elevation profile :



Receiving stations :


Receiver Frames First received Last received
DM0DOS-11 278 2026-09-02 00:13:44 2026-09-02 01:08:04
DJ2DS-15 110 2026-09-02 00:22:59 2026-09-02 01:05:02
BIOWL1-15 108 2026-09-02 00:19:53 2026-09-02 01:06:18
DB0UT-7 44 2026-09-02 00:26:43 2026-09-02 01:04:23
DL1XH-west 44 2026-09-02 00:51:26 2026-09-02 00:59:43
BIOWL9-15 17 2026-09-02 00:23:01 2026-09-02 01:02:22
AU51GT2 5 2026-09-02 00:53:04 2026-09-02 00:58:15

Share per receiver :



All frames :


Receiver Date Latitude Longitude Direction Speed Altitude Climb Temperature Humidity Pressure Voltage Killtimer Uptime BKT XDATA
DM0DOS-112026-09-02 01:08:0452.79592-0.00156102°57km/h15720m-17.1m/s-52°C3.6%0hPa2.5V08:20:2402:17:5600:00:00
DM0DOS-112026-09-02 01:07:5852.79630-0.00373106°49km/h15906m-20.2m/s-51°C3.2%0hPa2.6V08:20:3402:17:4600:00:00
DM0DOS-112026-09-02 01:07:4852.79657-0.0055698°38km/h16094m-18.6m/s-51.2°C3.2%0hPa2.5V08:20:4402:17:3600:00:00
DM0DOS-112026-09-02 01:07:3852.79665-0.0073590°44km/h16286m-20.1m/s-51.6°C3.3%0hPa2.6V08:20:5402:17:2600:00:00
DM0DOS-112026-09-02 01:07:2652.79672-0.0090995°46km/h16469m-19.9m/s-52°C3.3%0hPa2.6V08:21:0402:17:1600:00:00
DM0DOS-112026-09-02 01:07:1452.79684-0.0112391°55km/h16662m-20.5m/s-52.5°C3.4%0hPa2.5V08:21:1402:17:0600:00:00
DM0DOS-112026-09-02 01:07:0452.79690-0.0133486°51km/h16857m-20.5m/s-52.9°C3.6%0hPa2.5V08:21:2402:16:5600:00:00
DM0DOS-112026-09-02 01:06:5452.79668-0.0155180°53km/h17045m-20.5m/s-52.8°C3.6%0hPa2.5V08:21:3402:16:4600:00:00
DM0DOS-112026-09-02 01:06:4452.79681-0.01775104°55km/h17234m-19.5m/s-52°C3.4%0hPa2.5V08:21:4402:16:3600:00:00
DM0DOS-112026-09-02 01:06:2652.79706-0.0215692°46km/h17612m-19.8m/s-51.6°C3.3%0hPa2.6V08:22:0402:16:1600:00:00
BIOWL1-152026-09-02 01:06:1852.79715-0.0226897°44km/h17734m-21.8m/s-51.5°C0%0hPa2.5V08:22:2002:16:1000:00:00
BIOWL1-152026-09-02 01:06:1052.79718-0.0246290°46km/h17954m-20.1m/s0°C0%0hPa2.5V18:12:1502:15:5900:00:00
BIOWL1-152026-09-02 01:05:5752.79728-0.02622106°40km/h18128m-19.4m/s0°C0%0hPa2.6V18:12:1502:15:5000:00:00
DM0DOS-112026-09-02 01:05:5452.79740-0.02681113°31km/h18204m-20.3m/s-51.6°C3.1%0hPa2.6V08:22:3402:15:4600:00:00
BIOWL1-152026-09-02 01:05:4752.79762-0.02748122°26km/h18336m-24.1m/s0°C0%0hPa2.6V18:12:1502:15:4000:00:00
DM0DOS-112026-09-02 01:05:4452.79774-0.02791108°31km/h18419m-18.1m/s-52.6°C3.4%0hPa2.5V08:22:4402:15:3600:00:00
DM0DOS-112026-09-02 01:05:3452.79798-0.02933103°38km/h18620m-23.6m/s-53.3°C3.6%0hPa2.5V08:22:5402:15:2600:00:00
DM0DOS-112026-09-02 01:05:2452.79820-0.0309197°38km/h18844m-20.3m/s-53.2°C3.7%0hPa2.5V08:23:0402:15:1600:00:00
DM0DOS-112026-09-02 01:05:1452.79827-0.0324288°29km/h19045m-21.3m/s-51.7°C3.3%0hPa2.5V08:23:1402:15:0600:00:00
DM0DOS-112026-09-02 01:05:0452.79815-0.0336978°37km/h19227m-20.2m/s-52.2°C3.6%0hPa2.5V08:23:2402:14:5600:00:00
DJ2DS-152026-09-02 01:05:0252.79813-0.0338580°20km/h19247m-20.7m/s-52.2°C3.6%0hPa2.5V00:00:0002:14:5500:00:00
DJ2DS-152026-09-02 01:05:0052.79809-0.0343785°44km/h19309m-20.8m/s-52.1°C0.6%-1.0hPa2.5V00:00:0000:00:0000:00:00
DM0DOS-112026-09-02 01:04:5452.79807-0.0355991°40km/h19439m-16.6m/s-51.1°C3.4%0hPa2.5V08:23:3502:14:4500:00:00
DM0DOS-112026-09-02 01:04:4452.79809-0.0371386°33km/h19647m-21m/s-49.4°C2.9%0hPa2.5V08:23:4502:14:3500:00:00
DB0UT-72026-09-02 01:04:2352.79830-0.03836104°22km/h20039m-22.5m/s-50.0°C2.9%0hPa2.5V00:00:0000:00:0000:00:00
DM0DOS-112026-09-02 01:04:0452.79853-0.04005106°26km/h20465m-23.9m/s-52.1°C3.4%0hPa2.5V08:24:2402:13:5600:00:00
DM0DOS-112026-09-02 01:03:5852.79858-0.0409971°26km/h20686m-21.4m/s-51.9°C3.5%0hPa2.6V08:24:3402:13:4600:00:00
DB0UT-72026-09-02 01:03:5352.79857-0.0409972°26km/h20687m-21.3m/s-51.8°C3.5%0hPa2.6V00:00:0002:13:4600:00:00
DM0DOS-112026-09-02 01:03:4852.79844-0.0423293°22km/h20894m-19.1m/s-50.6°C3.1%0hPa2.6V08:24:4502:13:3500:00:00
DM0DOS-112026-09-02 01:03:3652.79853-0.04282106°7km/h21101m-25.2m/s-50.2°C2.8%0hPa2.6V08:24:5402:13:2600:00:00
DJ2DS-152026-09-02 01:03:1152.79816-0.0441177°26km/h21620m-28.8m/s-52.3°C0.5%-1.0hPa2.6V00:00:0000:00:0000:00:00
DB0UT-72026-09-02 01:02:5352.79778-0.0459467°18km/h22061m-22.0m/s-51.2°C3.2%0hPa2.6V00:00:0000:00:0000:00:00
BIOWL1-152026-09-02 01:02:3752.79785-0.04767145°13km/h22451m-26.4m/s-50.4°C0%0hPa2.6V08:28:1702:12:2800:00:00
DM0DOS-112026-09-02 01:02:3452.79791-0.04773158°5km/h22527m-25.1m/s-50.5°C3%0hPa2.5V08:25:5502:12:2500:00:00
DM0DOS-112026-09-02 01:02:2752.79796-0.0481479°18km/h22775m-28.7m/s-51.7°C3.3%0hPa2.5V08:26:0502:12:1500:00:00
BIOWL1-152026-09-02 01:02:2452.79797-0.0480187°16km/h22724m-24.9m/s-51.5°C0%0hPa2.6V08:28:1702:12:1700:00:00
DB0UT-72026-09-02 01:02:2352.79797-0.0480781°16km/h22749m-26.3m/s-51.6°C3.2%0hPa2.5V08:26:0002:12:1600:00:00
BIOWL9-152026-09-02 01:02:2252.79796-0.0482383°22km/h22802m-25.9m/s-51.8°C0.4%-1.0hPa2.5V00:00:0000:00:0000:00:00
DM0DOS-112026-09-02 01:02:1552.79799-0.04900107°16km/h23037m-26.9m/s-51.6°C3.4%0hPa2.5V08:26:1502:12:0500:00:00
BIOWL1-152026-09-02 01:02:1452.79797-0.0488599°18km/h22984m-28.6m/s-51.9°C0%0hPa2.6V08:28:1702:12:0700:00:00
BIOWL1-152026-09-02 01:02:0352.79796-0.0493659°13km/h23290m-29.9m/s-50.9°C0%0hPa2.5V08:28:1702:11:5600:00:00
DM0DOS-112026-09-02 01:02:0352.79789-0.0495143°16km/h23379m-31m/s-51.3°C3.3%0hPa2.6V08:26:2702:11:5300:00:00
BIOWL1-152026-09-02 01:01:5352.79771-0.0499471°20km/h23591m-30.9m/s-50.9°C0%0hPa2.5V08:28:1702:11:4600:00:00
DB0UT-72026-09-02 01:01:5352.79771-0.0499471°20km/h23592m-30.8m/s-50.8°C3.1%0hPa2.6V00:00:0000:00:0000:00:00
DM0DOS-112026-09-02 01:01:5252.79767-0.0502178°22km/h23681m-30.4m/s-50.9°C3.1%0hPa2.6V08:26:3702:11:4300:00:00
DM0DOS-112026-09-02 01:01:4352.79771-0.05078115°0km/h23950m-25.8m/s-50.6°C3.1%0hPa2.6V08:26:4702:11:3300:00:00
DM0DOS-112026-09-02 01:01:3252.79774-0.0509682°9km/h24240m-30m/s-50.8°C3.2%0hPa2.6V08:26:5702:11:2300:00:00
BIOWL1-152026-09-02 01:01:2352.79773-0.0512388°9km/h24496m-35.1m/s-50.3°C0%0hPa2.5V08:28:1702:11:1500:00:00
DM0DOS-112026-09-02 01:01:2352.79774-0.05131101°11km/h24562m-33.5m/s-50.4°C3.1%0hPa2.6V08:27:0702:11:1300:00:00
DB0UT-72026-09-02 01:01:1752.79777-0.05144115°13km/h24660m-30.6m/s-50.2°C3.1%0hPa2.6V00:00:0002:11:1000:00:00
DM0DOS-112026-09-02 01:01:1452.79783-0.0517494°11km/h24851m-27.4m/s-49.7°C2.9%0hPa2.6V08:27:1702:11:0300:00:00
DJ2DS-152026-09-02 01:01:1052.79783-0.0517495°11km/h24851m-27.3m/s-49.6°C2.9%0hPa2.6V00:00:0002:11:0300:00:00
DM0DOS-112026-09-02 01:01:0352.79779-0.0522290°9km/h25117m-25.1m/s-49.8°C3%0hPa2.6V08:27:2702:10:5300:00:00
DM0DOS-112026-09-02 01:00:5252.79805-0.05256168°20km/h25368m-28.5m/s-49.5°C2.9%0hPa2.6V08:27:3702:10:4300:00:00
DJ2DS-152026-09-02 01:00:4852.79819-0.05257192°15km/h25455m-29.5m/s-49.1°C0.3%-1.0hPa2.5V00:00:0000:00:0000:00:00
BIOWL1-152026-09-02 01:00:4452.79835-0.0524747°4km/h25750m-28.5m/s-49.6°C0%0hPa2.5V08:28:1702:10:2900:00:00
DM0DOS-112026-09-02 01:00:4252.79834-0.05246245°2km/h25646m-27.3m/s-50°C3.1%0hPa2.6V08:27:4702:10:3300:00:00
BIOWL1-152026-09-02 01:00:3152.79835-0.05264107°11km/h25889m-27.4m/s-49.2°C0%0hPa2.5V08:28:1702:10:2400:00:00
DJ2DS-152026-09-02 01:00:2852.79837-0.05275121°11km/h25968m-26.4m/s-49.0°C2.9%0hPa2.6V00:00:0002:10:2100:00:00
DM0DOS-112026-09-02 01:00:2552.79844-0.0529898°13km/h26156m-31.3m/s-48.6°C2.8%0hPa2.6V08:28:0702:10:1300:00:00
DB0UT-72026-09-02 01:00:1752.79844-0.0531688°11km/h26247m-27.0m/s-48.4°C2.9%0hPa2.6V00:00:0002:10:1000:00:00
DM0DOS-112026-09-02 01:00:1452.79851-0.05347146°11km/h26451m-29.2m/s-48.2°C2.8%0hPa2.6V08:28:1702:10:0300:00:00
BIOWL1-152026-09-02 01:00:1452.79845-0.05332106°15km/h26327m-28.9m/s-48.1°C0%0hPa2.6V08:28:1702:10:0700:00:00
BIOWL1-152026-09-02 01:00:1052.79879-0.05344198°20km/h26675m-31.6m/s-47.6°C0%0hPa2.5V08:29:0802:09:5500:00:00
DJ2DS-152026-09-02 01:00:0852.79856-0.05351173°13km/h26508m-29.2m/s-48.1°C2.8%0hPa2.6V00:00:0002:10:0100:00:00
DM0DOS-112026-09-02 01:00:0352.79887-0.05339205°16km/h26743m-34.9m/s-47.8°C2.7%0hPa2.6V08:28:2702:09:5300:00:00
DM0DOS-112026-09-02 00:59:5552.79890-0.05303341°9km/h27109m-37.3m/s-48.2°C2.8%0hPa2.6V08:28:3702:09:4300:00:00
DJ2DS-152026-09-02 00:59:4852.79886-0.0530313°7km/h27181m-37.0m/s-48.4°C2.8%0hPa2.5V08:28:0002:09:4100:00:00
DM0DOS-112026-09-02 00:59:4452.79868-0.0531846°5km/h27472m-36.6m/s-48.2°C2.8%0hPa2.6V08:28:4702:09:3300:00:00
DL1XH-west2026-09-02 00:59:4352.79872-0.0531239°9km/h27362m-37.6m/s-48.3°C0%0hPa2.5V08:29:5902:09:3600:00:00
DB0UT-72026-09-02 00:59:3952.79867-0.0532063°7km/h27509m-37.8m/s-48.0°C2.7%0hPa2.6V00:00:0000:00:0000:00:00
DM0DOS-112026-09-02 00:59:3452.79871-0.05310223°7km/h27803m-26.1m/s-48.5°C3%0hPa2.6V08:28:5702:09:2300:00:00
DL1XH-west2026-09-02 00:59:3252.79869-0.05315215°7km/h27750m-28.8m/s-48.5°C0%0hPa2.5V08:29:5902:09:2500:00:00
BIOWL1-152026-09-02 00:59:2952.79873-0.05307240°11km/h27830m-29.8m/s-48.3°C0%0hPa2.6V08:29:0802:09:2200:00:00
DJ2DS-152026-09-02 00:59:2852.79875-0.05301250°13km/h27861m-32.2m/s-48.1°C2.9%0hPa2.6V00:00:0002:09:2100:00:00
DM0DOS-112026-09-02 00:59:2452.79875-0.05253310°11km/h28154m-38.7m/s-47.1°C2.6%0hPa2.6V08:29:0702:09:1300:00:00
BIOWL1-152026-09-02 00:59:1852.79859-0.05233326°7km/h28390m-33m/s-47.1°C0%0hPa2.5V08:29:5902:09:0600:00:00
DM0DOS-112026-09-02 00:59:1452.79856-0.05224317°5km/h28469m-22.7m/s-47.1°C2.7%0hPa2.6V08:29:1702:09:0300:00:00
DJ2DS-152026-09-02 00:59:0852.79855-0.05222117°7km/h28522m-30.9m/s-46.8°C2.7%0hPa2.6V00:00:0002:09:0100:00:00
DM0DOS-112026-09-02 00:59:0452.79861-0.05238131°7km/h28764m-32.9m/s-46.3°C2.6%0hPa2.6V08:29:2702:08:5300:00:00
DM0DOS-112026-09-02 00:58:5252.79872-0.05217246°7km/h29114m-41.4m/s-45.5°C2.4%0hPa2.6V08:29:3702:08:4300:00:00
BIOWL1-152026-09-02 00:58:4952.79873-0.05214228°7km/h29155m-40.8m/s-45.3°C0%0hPa2.6V08:29:5902:08:4200:00:00
DJ2DS-152026-09-02 00:58:4852.79875-0.05212211°7km/h29195m-39.4m/s-45.2°C2.4%0hPa2.5V00:00:0002:08:4100:00:00
DB0UT-72026-09-02 00:58:4452.79879-0.05206199°11km/h29338m-32.7m/s-45.1°C2.4%0hPa2.6V00:00:0002:08:3700:00:00
DM0DOS-112026-09-02 00:58:4352.79882-0.05201241°2km/h29475m-33.5m/s-45.2°C2.4%0hPa2.6V08:29:4702:08:3300:00:00
DL1XH-west2026-09-02 00:58:4152.79882-0.05203259°7km/h29441m-35.2m/s-45.2°C0%0hPa2.5V08:29:5902:08:3400:00:00
BIOWL1-152026-09-02 00:58:3552.79885-0.05187288°9km/h29687m-38.1m/s0°C0%0hPa2.5V08:29:5902:08:2600:00:00
DM0DOS-112026-09-02 00:58:3352.79882-0.05176297°9km/h29800m-36.2m/s-45.3°C2.5%0hPa2.6V08:29:5702:08:2300:00:00
DL1XH-west2026-09-02 00:58:3052.79882-0.05176298°9km/h29800m-36.2m/s-45.3°C0%0hPa2.6V08:29:5902:08:2300:00:00
DJ2DS-152026-09-02 00:58:2852.79879-0.05168306°18km/h29867m-31.9m/s-45.3°C2.5%0hPa2.6V00:00:0002:08:2100:00:00
DM0DOS-112026-09-02 00:58:2352.79854-0.05139335°26km/h30076m-24.6m/s-44.5°C2.4%0hPa2.6V08:30:0002:08:1300:00:00
DL1XH-west2026-09-02 00:58:2052.79854-0.05139336°26km/h30076m-24.6m/s-44.5°C0%0hPa2.6V18:12:1502:08:1300:00:00
AU51GT22026-09-02 00:58:1552.79817-0.0513222°24km/h30243m-31.6m/s-44.0°C0.2%-1.0hPa2.5V00:00:0000:00:0000:00:00
DB0UT-72026-09-02 00:58:1452.79817-0.0513223°11km/h30243m-31.5m/s-44.0°C2.2%0hPa2.5V00:00:0000:00:0000:00:00
DM0DOS-112026-09-02 00:58:1352.79799-0.0514726°15km/h30359m-24.8m/s-44.2°C2.3%0hPa2.5V08:30:0002:08:0300:00:00
DL1XH-west2026-09-02 00:58:0952.79796-0.0514919°11km/h30384m-25.3m/s-44.2°C0%0hPa2.5V18:12:1502:08:0200:00:00
DJ2DS-152026-09-02 00:58:0852.79794-0.05148330°18km/h30409m-23.7m/s-44.1°C2.3%0hPa2.5V00:00:0002:08:0100:00:00
DM0DOS-112026-09-02 00:58:0352.79761-0.0511724km/h30610m-25m/s-44°C2.2%0hPa2.5V08:30:0002:07:5300:00:00
DL1XH-west2026-09-02 00:57:5952.79755-0.0511824km/h30631m-17m/s-44.1°C0%0hPa2.5V18:12:1502:07:5200:00:00
DM0DOS-112026-09-02 00:57:5352.79716-0.0512940°11km/h30609m6.4m/s-44.1°C2.3%0hPa2.5V08:30:0002:07:4300:00:00
DL1XH-west2026-09-02 00:57:4852.79712-0.0513634°13km/h30599m4.5m/s-44.2°C0%0hPa2.5V18:12:1502:07:4100:00:00
DJ2DS-152026-09-02 00:57:4852.79712-0.0513635°16km/h30599m4.4m/s-44.1°C2.3%0hPa2.5V00:00:0002:07:4100:00:00
DM0DOS-112026-09-02 00:57:4452.79670-0.0513423°18km/h30555m5.3m/s-44.2°C2.3%0hPa2.6V08:30:0002:07:3300:00:00
DL1XH-west2026-09-02 00:57:3852.79662-0.0514030°13km/h30544m6.2m/s-44.3°C0%0hPa2.5V18:12:1502:07:3100:00:00
DM0DOS-112026-09-02 00:57:3152.79644-0.05160346°20km/h30499m6m/s-44.5°C2.3%0hPa2.5V08:30:0002:07:2300:00:00
DL1XH-west2026-09-02 00:57:2752.79627-0.05152349°24km/h30483m6.1m/s-44.5°C0%0hPa2.5V18:12:1502:07:2000:00:00
DM0DOS-112026-09-02 00:57:2452.79602-0.0516315km/h30446m5.2m/s-44.6°C2.4%0hPa2.5V08:30:0002:07:1300:00:00
DL1XH-west2026-09-02 00:57:1852.79588-0.0516719°18km/h30430m5.4m/s-44.7°C0%0hPa2.5V18:12:1502:07:1000:00:00
DM0DOS-112026-09-02 00:57:1352.79562-0.05161345°22km/h30393m4.5m/s-44.6°C2.3%0hPa2.5V08:30:0002:07:0300:00:00
DL1XH-west2026-09-02 00:57:0752.79547-0.0516535°20km/h30376m5.6m/s-44.5°C0%0hPa2.6V18:12:1502:07:0000:00:00
DM0DOS-112026-09-02 00:57:0352.79522-0.05177346°22km/h30338m6.1m/s-44.6°C2.4%0hPa2.6V08:30:0002:06:5300:00:00
DL1XH-west2026-09-02 00:56:5752.79504-0.05172352°24km/h30321m5.1m/s-44.6°C0%0hPa2.5V18:12:1502:06:5000:00:00
DM0DOS-112026-09-02 00:56:5352.79471-0.0517531°18km/h30279m5.5m/s-44.6°C2.3%0hPa2.6V08:30:0002:06:4300:00:00
DL1XH-west2026-09-02 00:56:4652.79453-0.05177349°22km/h30257m5.5m/s-44.6°C0%0hPa2.6V18:12:1502:06:3900:00:00
DL1XH-west2026-09-02 00:56:3552.79387-0.0515113km/h30193m4.9m/s-44.6°C0%0hPa2.6V18:12:1502:06:2800:00:00
DJ2DS-152026-09-02 00:56:3552.79384-0.05151352°11km/h30187m6.2m/s-44.6°C0.2%-1.0hPa2.5V00:00:0000:00:0000:00:00
DM0DOS-112026-09-02 00:56:3352.79375-0.05139323°16km/h30163m6m/s-44.7°C2.3%0hPa2.5V08:30:0002:06:2300:00:00
DL1XH-west2026-09-02 00:56:2452.79344-0.05114319°26km/h30127m5.6m/s-45.2°C0%0hPa2.5V18:12:1502:06:1700:00:00
DM0DOS-112026-09-02 00:56:2352.79326-0.05090319°18km/h30103m5m/s-45.4°C2.4%0hPa2.5V08:30:0002:06:1300:00:00
DL1XH-west2026-09-02 00:56:1352.79303-0.05060349°26km/h30062m5.2m/s-45.6°C0%0hPa2.6V18:12:1502:06:0600:00:00
DM0DOS-112026-09-02 00:56:1352.79287-0.05050317°16km/h30046m6.6m/s-45.5°C2.4%0hPa2.5V08:30:0002:06:0300:00:00
AU51GT22026-09-02 00:56:1052.79287-0.05050317°16km/h30046m6.6m/s-45.6°C0.2%-1.0hPa2.6V00:00:0000:00:0000:00:00
DJ2DS-152026-09-02 00:56:0852.79284-0.05038269°16km/h30034m5.4m/s-45.5°C2.4%0hPa2.6V00:00:0002:06:0100:00:00
DM0DOS-112026-09-02 00:56:0252.79276-0.04992287°26km/h29987m5.7m/s-45.7°C2.4%0hPa2.6V08:30:0002:05:5300:00:00
DL1XH-west2026-09-02 00:56:0252.79280-0.05008303°16km/h30000m5.8m/s-45.6°C0%0hPa2.5V18:12:1502:05:5500:00:00
BIOWL1-152026-09-02 00:56:0152.79274-0.04982288°29km/h29982m5m/s-45.7°C0%0hPa2.6V18:12:1502:05:5200:00:00
DJ2DS-152026-09-02 00:55:5952.79272-0.04970291°29km/h29977m5.4m/s-45.7°C0.2%-1.0hPa2.6V00:00:0000:00:0000:00:00
DM0DOS-112026-09-02 00:55:5252.79259-0.04919202°7km/h29932m5.4m/s-45.7°C2.4%0hPa2.6V08:30:0002:05:4300:00:00
DL1XH-west2026-09-02 00:55:5152.79257-0.04921219°9km/h29937m5.1m/s-45.7°C0%0hPa2.5V18:12:1502:05:4400:00:00
DJ2DS-152026-09-02 00:55:4852.79261-0.0491999°9km/h29920m5.7m/s-45.7°C2.5%0hPa2.5V00:00:0002:05:4100:00:00
DM0DOS-112026-09-02 00:55:4352.79256-0.04883289°9km/h29875m6.2m/s-45.8°C2.5%0hPa2.5V08:30:0002:05:3300:00:00
DL1XH-west2026-09-02 00:55:4152.79256-0.04888274°15km/h29881m5.4m/s-45.8°C0%0hPa2.5V18:12:1502:05:3400:00:00
AU51GT22026-09-02 00:55:3952.79254-0.04881342°5km/h29869m6.1m/s-45.8°C0.2%-1.0hPa2.5V00:00:0000:00:0000:00:00
BIOWL9-152026-09-02 00:55:3852.79252-0.04885243°7km/h29830m5.4m/s-45.7°C0.3%-1.0hPa2.5V00:00:0000:00:0000:00:00
DM0DOS-112026-09-02 00:55:3352.79253-0.04880273°5km/h29818m5.6m/s-45.7°C2.5%0hPa2.5V08:30:0002:05:2300:00:00
DL1XH-west2026-09-02 00:55:3052.79253-0.04880273°5km/h29818m5.6m/s-45.7°C0%0hPa2.5V18:12:1502:05:2300:00:00
BIOWL1-152026-09-02 00:55:2752.79252-0.04869264°11km/h29801m6.8m/s-45.7°C0%0hPa2.6V18:12:1502:05:2000:00:00
DM0DOS-112026-09-02 00:55:2352.79250-0.0485147°7km/h29763m4.7m/s-45.6°C2.4%0hPa2.5V08:30:0002:05:1300:00:00
DL1XH-west2026-09-02 00:55:2052.79250-0.0485148°7km/h29763m4.7m/s-45.6°C0%0hPa2.5V18:12:1502:05:1300:00:00
DM0DOS-112026-09-02 00:55:1252.79252-0.04830288°11km/h29703m6.2m/s-45.7°C2.5%0hPa2.6V08:30:0002:05:0300:00:00
DL1XH-west2026-09-02 00:55:1052.79252-0.04830288°11km/h29703m6.2m/s-45.7°C0%0hPa2.6V18:12:1502:05:0300:00:00
BIOWL1-152026-09-02 00:55:0652.79249-0.04820355°4km/h29680m4.8m/s-45.7°C0%0hPa2.5V18:12:1502:04:5900:00:00
DM0DOS-112026-09-02 00:55:0252.79257-0.04802233°13km/h29647m5.7m/s-45.8°C2.5%0hPa2.5V08:30:0002:04:5300:00:00
DL1XH-west2026-09-02 00:54:5952.79259-0.04798244°7km/h29641m6.1m/s-45.8°C0%0hPa2.6V18:12:1502:04:5200:00:00
BIOWL1-152026-09-02 00:54:5552.79255-0.04790301°5km/h29618m6.1m/s-45.7°C0%0hPa2.5V18:12:1502:04:4800:00:00
DB0UT-72026-09-02 00:54:5352.79256-0.04785232°9km/h29607m5.2m/s-45.6°C2.5%0hPa2.5V00:00:0002:04:4600:00:00
DM0DOS-112026-09-02 00:54:5252.79262-0.04783152°11km/h29590m6.4m/s-45.7°C2.5%0hPa2.5V08:30:0002:04:4300:00:00
DL1XH-west2026-09-02 00:54:4852.79266-0.04788138°11km/h29578m5.5m/s-45.6°C0%0hPa2.6V18:12:1502:04:4100:00:00
DJ2DS-152026-09-02 00:54:4852.79266-0.04788138°9km/h29578m5.5m/s-45.6°C2.5%0hPa2.6V00:00:0002:04:4100:00:00
DM0DOS-112026-09-02 00:54:4552.79265-0.04783303°9km/h29532m6.3m/s-45.8°C2.5%0hPa2.5V08:30:0002:04:3300:00:00
BIOWL1-152026-09-02 00:54:4552.79271-0.04791223°4km/h29561m5.1m/s-45.6°C0%0hPa2.5V18:12:1502:04:3800:00:00
DL1XH-west2026-09-02 00:54:3852.79264-0.04777269°5km/h29521m4.3m/s-45.8°C0%0hPa2.5V18:12:1502:04:3100:00:00
AU51GT22026-09-02 00:54:3752.79264-0.04775220°0km/h29516m6.3m/s-45.8°C0.2%-1.0hPa2.6V00:00:0000:00:0000:00:00
BIOWL9-152026-09-02 00:54:3652.79265-0.04779105°9km/h29504m5.7m/s-45.8°C0.3%-1.0hPa2.6V00:00:0000:00:0000:00:00
DM0DOS-112026-09-02 00:54:3552.79275-0.04800130°9km/h29476m5.5m/s-45.9°C2.5%0hPa2.6V08:30:0002:04:2300:00:00
BIOWL1-152026-09-02 00:54:3552.79273-0.04797141°13km/h29481m4.4m/s-45.9°C0%0hPa2.6V18:12:1502:04:2400:00:00
DL1XH-west2026-09-02 00:54:2752.79273-0.04805357°9km/h29459m4.8m/s-45.9°C0%0hPa2.5V18:12:1502:04:2000:00:00
DM0DOS-112026-09-02 00:54:2352.79270-0.04788110°5km/h29421m5.5m/s-45.8°C2.5%0hPa2.6V08:30:0002:04:1300:00:00
BIOWL1-152026-09-02 00:54:2252.79269-0.04787199°4km/h29427m6.3m/s-45.8°C0%0hPa2.5V18:12:1502:04:1400:00:00
DL1XH-west2026-09-02 00:54:1652.79274-0.04800148°9km/h29399m5.4m/s-45.8°C0%0hPa2.5V18:12:1502:04:0900:00:00
DM0DOS-112026-09-02 00:54:1552.79276-0.0480618°11km/h29368m5.3m/s-46°C2.4%0hPa2.5V08:30:0002:04:0300:00:00
DL1XH-west2026-09-02 00:54:0652.79268-0.04802260°9km/h29346m4.6m/s-46.1°C0%0hPa2.5V18:12:1502:03:5900:00:00
DL1XH-west2026-09-02 00:53:5552.79278-0.04777322°18km/h29286m5m/s-46.5°C0%0hPa2.6V18:12:1502:03:4800:00:00
BIOWL1-152026-09-02 00:53:5452.79279-0.04746181°16km/h29250m5.3m/s0°C0%0hPa2.5V18:12:1502:03:4100:00:00
DL1XH-west2026-09-02 00:53:4452.79292-0.04747212°9km/h29231m6m/s-47°C0%0hPa2.6V18:12:1502:03:3700:00:00
BIOWL1-152026-09-02 00:53:4352.79293-0.04744250°11km/h29225m5.5m/s0°C0%0hPa2.5V18:12:1502:03:3600:00:00
BIOWL1-152026-09-02 00:53:3552.79278-0.04708253°2km/h29170m6.5m/s0°C0%0hPa2.6V18:12:1502:03:2600:00:00
DL1XH-west2026-09-02 00:53:3452.79278-0.04709276°5km/h29175m5.1m/s-47.2°C0%0hPa2.6V18:12:1502:03:2700:00:00
DM0DOS-112026-09-02 00:53:3252.79280-0.04706228°4km/h29152m6.2m/s-47.2°C2.6%0hPa2.5V08:30:0002:03:2300:00:00
DJ2DS-152026-09-02 00:53:2852.79281-0.04701275°7km/h29142m4.1m/s-47.2°C2.6%0hPa2.5V00:00:0002:03:2100:00:00
DM0DOS-112026-09-02 00:53:2552.79269-0.04687301°4km/h29094m5.6m/s-47.6°C2.7%0hPa2.5V08:30:0002:03:1200:00:00
DL1XH-west2026-09-02 00:53:2452.79276-0.046987km/h29120m4.7m/s-47.4°C0%0hPa2.5V18:12:1502:03:1700:00:00
DL1XH-west2026-09-02 00:53:1452.79274-0.04698155°5km/h29060m4.4m/s-47.7°C0%0hPa2.5V18:12:1502:03:0600:00:00
DM0DOS-112026-09-02 00:53:1452.79276-0.0470476°7km/h29044m5.5m/s-47.7°C2.7%0hPa2.6V08:30:0002:03:0300:00:00
DJ2DS-152026-09-02 00:53:0852.79273-0.0470842°7km/h29034m5.3m/s-47.7°C2.8%0hPa2.5V00:00:0002:03:0100:00:00
AU51GT22026-09-02 00:53:0452.79273-0.04706188°2km/h29012m5.5m/s0°C-1.0%-1.0hPa2.5V00:00:0000:00:0000:00:00
DM0DOS-112026-09-02 00:53:0352.79279-0.04719126°13km/h28989m6.2m/s-47.7°C2.8%0hPa2.5V08:30:0002:02:5300:00:00
DL1XH-west2026-09-02 00:53:0352.79275-0.04710117°11km/h29000m5.5m/s-47.7°C0%0hPa2.5V18:12:1502:02:5500:00:00
BIOWL1-152026-09-02 00:52:5752.79285-0.04729130°9km/h28972m5.2m/s0°C0%0hPa2.5V18:12:1502:02:5000:00:00
DM0DOS-112026-09-02 00:52:5252.79284-0.04744122°9km/h28918m5.6m/s-47.6°C2.7%0hPa2.6V08:30:0002:02:4100:00:00
DL1XH-west2026-09-02 00:52:5152.79283-0.04741293°2km/h28936m4.9m/s-47.6°C0%0hPa2.5V18:12:1502:02:4400:00:00
DJ2DS-152026-09-02 00:52:4852.79284-0.04744123°11km/h28919m5.5m/s-47.5°C2.7%0hPa2.6V00:00:0002:02:4100:00:00
DB0UT-72026-09-02 00:52:4552.79292-0.04754153°11km/h28901m5.3m/s-47.5°C2.8%0hPa2.5V00:00:0002:02:3800:00:00
DM0DOS-112026-09-02 00:52:4352.79296-0.0478015°7km/h28859m5.3m/s-47.3°C2.7%0hPa2.5V08:30:0002:02:3100:00:00
DL1XH-west2026-09-02 00:52:4152.79299-0.0477669°9km/h28872m6.1m/s-47.4°C0%0hPa2.6V18:12:1502:02:3300:00:00
BIOWL1-152026-09-02 00:52:4052.79296-0.0478016°7km/h28859m5.4m/s0°C0%0hPa2.5V18:12:1502:02:3100:00:00
DM0DOS-112026-09-02 00:52:3352.79306-0.04809106°18km/h28795m5.2m/s-47.4°C2.7%0hPa2.5V08:30:0002:02:2000:00:00
DL1XH-west2026-09-02 00:52:2952.79301-0.04796141°18km/h28807m6.6m/s-47.4°C0%0hPa2.5V18:12:1502:02:2200:00:00
DJ2DS-152026-09-02 00:52:2852.79304-0.04802123°11km/h28801m5.9m/s-47.3°C2.7%0hPa2.6V00:00:0002:02:2100:00:00
DM0DOS-112026-09-02 00:52:2252.79302-0.04842181°5km/h28735m6.5m/s-47.5°C2.7%0hPa2.6V08:30:0002:02:1000:00:00
DL1XH-west2026-09-02 00:52:1952.79301-0.0483967°5km/h28748m4.8m/s-47.4°C0%0hPa2.5V18:12:1502:02:1200:00:00
DB0UT-72026-09-02 00:52:1552.79306-0.04842165°11km/h28724m4.4m/s-47.5°C2.7%0hPa2.6V00:00:0000:00:0000:00:00
DM0DOS-112026-09-02 00:52:1252.79311-0.04872344°9km/h28676m6m/s-47.5°C2.7%0hPa2.6V08:30:0002:02:0000:00:00
DL1XH-west2026-09-02 00:52:0852.79312-0.04872360°5km/h28681m5.9m/s-47.6°C0%0hPa2.5V18:12:1502:02:0100:00:00
DJ2DS-152026-09-02 00:52:0852.79312-0.04872360°11km/h28682m5.8m/s-47.5°C2.7%0hPa2.5V00:00:0002:02:0100:00:00
DM0DOS-112026-09-02 00:52:0352.79314-0.04874115°7km/h28613m6.8m/s-47.5°C2.7%0hPa2.5V08:30:0002:01:5000:00:00
DL1XH-west2026-09-02 00:51:5752.79314-0.04874116°7km/h28613m6.8m/s-47.5°C0%0hPa2.5V18:12:1502:01:5000:00:00
DM0DOS-112026-09-02 00:51:5352.79292-0.04851265°4km/h28550m6.8m/s-47.5°C2.7%0hPa2.5V08:30:0002:01:4000:00:00
DL1XH-west2026-09-02 00:51:4652.79292-0.04850137°2km/h28543m6.8m/s0°C0%0hPa2.5V18:12:1502:01:3900:00:00
DB0UT-72026-09-02 00:51:4552.79292-0.04852111°11km/h28537m5.4m/s-47.5°C2.7%0hPa2.6V00:00:0002:01:3800:00:00
DM0DOS-112026-09-02 00:51:4252.79280-0.04858352°22km/h28487m5.7m/s-47.5°C2.7%0hPa2.6V08:30:0002:01:3000:00:00
DL1XH-west2026-09-02 00:51:3652.79275-0.04857343°22km/h28481m7.3m/s0°C0%0hPa2.6V18:12:1502:01:2900:00:00
DM0DOS-112026-09-02 00:51:3252.79250-0.04841305°4km/h28424m6.1m/s-47.5°C2.7%0hPa2.6V08:30:0002:01:2000:00:00
DL1XH-west2026-09-02 00:51:2652.79249-0.04840353°4km/h28417m6.9m/s0°C0%0hPa2.6V18:12:1502:01:1900:00:00
DM0DOS-112026-09-02 00:51:2252.79221-0.04829333°13km/h28360m5.7m/s-47.4°C2.7%0hPa2.5V08:30:0002:01:1000:00:00
DB0UT-72026-09-02 00:51:1552.79217-0.04823290°13km/h28347m6.7m/s-47.3°C2.7%0hPa2.5V00:00:0000:00:0000:00:00
DM0DOS-112026-09-02 00:51:1252.79204-0.04801311°13km/h28294m6m/s-47.5°C2.8%0hPa2.5V08:30:0002:01:0000:00:00
DJ2DS-152026-09-02 00:51:1052.79211-0.04810339°9km/h28314m6.0m/s-47.5°C0.3%-1.0hPa2.5V00:00:0000:00:0000:00:00
DJ2DS-152026-09-02 00:51:0852.79206-0.04805311°13km/h28301m6.5m/s-47.5°C2.7%0hPa2.5V00:00:0002:01:0100:00:00
DM0DOS-112026-09-02 00:51:0252.79192-0.04757310°5km/h28232m5.3m/s-47.5°C2.7%0hPa2.5V08:30:0002:00:5000:00:00
BIOWL1-152026-09-02 00:50:5152.79187-0.04721286°22km/h28182m7.1m/s-47.3°C0%0hPa2.5V18:12:1502:00:4200:00:00
DM0DOS-112026-09-02 00:50:5152.79184-0.04700277°27km/h28170m5m/s-47.3°C2.7%0hPa2.5V08:30:0002:00:4000:00:00
DJ2DS-152026-09-02 00:50:4852.79185-0.04711279°16km/h28176m6.1m/s-47.3°C2.7%0hPa2.5V00:00:0002:00:4108:30:00
DB0UT-72026-09-02 00:50:4552.79182-0.04679286°16km/h28159m6.6m/s-47.3°C2.7%0hPa2.5V00:00:0002:00:3800:00:00
DM0DOS-112026-09-02 00:50:4152.79185-0.04645255°9km/h28110m6m/s-47.2°C2.7%0hPa2.5V08:30:0002:00:3000:00:00
BIOWL1-152026-09-02 00:50:3952.79189-0.04621251°22km/h28085m5.6m/s-47.2°C0%0hPa2.6V18:12:1502:00:2600:00:00
DJ2DS-152026-09-02 00:50:3452.79187-0.04629250°18km/h28092m6.8m/s-47.2°C0.3%-1.0hPa2.6V00:00:0000:00:0000:00:00
DM0DOS-112026-09-02 00:50:3152.79200-0.04577226°20km/h28048m5.7m/s-47.6°C2.7%0hPa2.6V08:30:0002:00:2000:00:00
BIOWL1-152026-09-02 00:50:2552.79209-0.04562229°13km/h28029m5.7m/s-47.6°C0%0hPa2.5V18:12:1502:00:1700:00:00
DM0DOS-112026-09-02 00:50:2152.79227-0.04512255°27km/h27987m5.6m/s-47.3°C2.7%0hPa2.5V08:30:0002:00:1000:00:00
BIOWL1-152026-09-02 00:50:1552.79245-0.04461226°20km/h27929m4.8m/s-47.3°C0%0hPa2.5V18:12:1502:00:0000:00:00
DB0UT-72026-09-02 00:50:1552.79231-0.04491244°16km/h27975m5.7m/s-47.2°C2.7%0hPa2.5V00:00:0000:00:0000:00:00
DM0DOS-112026-09-02 00:50:1352.79245-0.04461226°20km/h27929m4.8m/s-47.3°C2.6%0hPa2.5V08:30:0002:00:0000:00:00
BIOWL1-152026-09-02 00:50:0352.79255-0.04420263°29km/h27906m4.8m/s-47.5°C0%0hPa2.6V18:12:1501:59:5600:00:00
DM0DOS-112026-09-02 00:50:0252.79266-0.04388143°7km/h27870m6.5m/s-47.8°C2.7%0hPa2.6V08:30:0001:59:5000:00:00
DJ2DS-152026-09-02 00:49:5852.79264-0.04387172°7km/h27877m6.0m/s-47.7°C0.3%-1.0hPa2.5V00:00:0000:00:0000:00:00
BIOWL9-152026-09-02 00:49:5752.79267-0.04390129°5km/h27864m5.8m/s-47.9°C0.3%-1.0hPa2.5V00:00:0000:00:0000:00:00
DM0DOS-112026-09-02 00:49:5252.79276-0.04357267°22km/h27813m5.4m/s-48°C2.8%0hPa2.5V08:30:0001:59:4000:00:00
BIOWL1-152026-09-02 00:49:5252.79275-0.04366272°24km/h27818m4.3m/s-48°C0%0hPa2.5V18:12:1501:59:4100:00:00
DJ2DS-152026-09-02 00:49:4852.79275-0.04366272°9km/h27818m4.3m/s-47.9°C2.7%0hPa2.5V00:00:0001:59:4100:00:00
DB0UT-72026-09-02 00:49:4552.79277-0.04343240°5km/h27802m5.0m/s-48.0°C2.8%0hPa2.6V00:00:0001:59:3808:30:00
DM0DOS-112026-09-02 00:49:4352.79286-0.0435949°7km/h27697m4.8m/s-48.2°C2.8%0hPa2.6V08:30:0001:59:2000:00:00
BIOWL1-152026-09-02 00:49:4152.79289-0.0437045°9km/h27639m6.2m/s-48.2°C0%0hPa2.5V18:12:1501:59:1000:00:00
DM0DOS-112026-09-02 00:49:3752.79287-0.0437232°11km/h27632m7m/s-48.2°C2.8%0hPa2.6V08:30:0001:59:0900:00:00
BIOWL1-152026-09-02 00:49:2352.79287-0.0437232°11km/h27633m7m/s-48.2°C0%0hPa2.6V18:12:1501:59:0900:00:00
DM0DOS-112026-09-02 00:49:2252.79279-0.04388125°13km/h27604m6m/s-48.3°C2.8%0hPa2.5V08:30:0001:59:0400:00:00
DB0UT-72026-09-02 00:49:1552.79284-0.0437526°15km/h27627m4.9m/s-48.2°C2.8%0hPa2.5V00:00:0000:00:0000:00:00
BIOWL1-152026-09-02 00:49:0652.79274-0.04465110°11km/h27507m5.9m/s-48.1°C0%0hPa2.5V18:12:1501:58:4700:00:00
DM0DOS-112026-09-02 00:49:0352.79282-0.0442435°20km/h27547m6.4m/s-48°C2.7%0hPa2.5V08:30:0001:58:5400:00:00
DM0DOS-112026-09-02 00:48:5652.79273-0.0447664°11km/h27490m6.6m/s-48.2°C2.8%0hPa2.6V08:30:0001:58:4400:00:00
BIOWL1-152026-09-02 00:48:5352.79274-0.0446990°7km/h27501m5.8m/s-48.1°C0%0hPa2.5V18:12:1501:58:4600:00:00
DJ2DS-152026-09-02 00:48:4852.79265-0.0449238°18km/h27472m6.8m/s-48.2°C2.8%0hPa2.5V00:00:0001:58:4100:00:00
DB0UT-72026-09-02 00:48:4552.79251-0.0450538°16km/h27454m6.4m/s-48.2°C2.8%0hPa2.5V00:00:0001:58:3800:00:00
DM0DOS-112026-09-02 00:48:4352.79245-0.0452790°7km/h27431m6.1m/s-48.3°C2.8%0hPa2.5V08:30:0001:58:3400:00:00
BIOWL1-152026-09-02 00:48:4352.79246-0.0451775°15km/h27442m5.3m/s-48.3°C0%0hPa2.5V18:12:1501:58:3600:00:00
DM0DOS-112026-09-02 00:48:3652.79209-0.0456529°22km/h27373m5.2m/s-48.4°C2.8%0hPa2.5V08:30:0001:58:2400:00:00
BIOWL1-152026-09-02 00:48:3252.79194-0.04580348°11km/h27344m6.7m/s-48.5°C0%0hPa2.6V18:12:1501:58:1900:00:00
DJ2DS-152026-09-02 00:48:2852.79198-0.0457842°15km/h27356m4.7m/s-48.4°C2.8%0hPa2.6V00:00:0001:58:2100:00:00
DM0DOS-112026-09-02 00:48:2552.79178-0.0458334°16km/h27315m4.8m/s-48.5°C2.9%0hPa2.6V08:30:0001:58:1400:00:00
BIOWL9-152026-09-02 00:48:2352.79160-0.0459633°11km/h27287m6.5m/s-48.6°C0.4%-1.0hPa2.6V00:00:0000:00:0000:00:00
DB0UT-72026-09-02 00:48:1552.79158-0.0459944°15km/h27280m5.8m/s-48.6°C2.9%0hPa2.6V00:00:0000:00:0000:00:00
DM0DOS-112026-09-02 00:48:1352.79146-0.04606347°18km/h27257m6.2m/s-48.7°C2.9%0hPa2.5V08:30:0001:58:0400:00:00
BIOWL1-152026-09-02 00:48:1052.79141-0.04604343°22km/h27251m4.9m/s-48.7°C0%0hPa2.5V18:12:1501:58:0300:00:00
DJ2DS-152026-09-02 00:48:1052.79136-0.04601342°18km/h27246m4.7m/s-48.7°C0.4%-1.0hPa2.5V00:00:0000:00:0000:00:00
DJ2DS-152026-09-02 00:48:0852.79132-0.04599353°15km/h27240m6.3m/s-48.6°C2.9%0hPa2.5V00:00:0001:58:0100:00:00
DM0DOS-112026-09-02 00:48:0752.79103-0.0460316km/h27202m5m/s-48.5°C2.9%0hPa2.5V08:30:0001:57:5400:00:00
DM0DOS-112026-09-02 00:47:5552.79083-0.04584356°15km/h27145m5.7m/s-48.3°C2.9%0hPa2.6V08:30:0001:57:4400:00:00
DJ2DS-152026-09-02 00:47:4852.79072-0.04584353°7km/h27128m6.1m/s-48.3°C2.9%0hPa2.5V00:00:0001:57:4108:30:00
DB0UT-72026-09-02 00:47:4552.79065-0.04582354°11km/h27111m6.9m/s-48.2°C2.9%0hPa2.5V00:00:0001:57:3800:00:00
DM0DOS-112026-09-02 00:47:4352.79062-0.04578296°9km/h27086m6.6m/s-48.1°C2.9%0hPa2.5V08:30:0001:57:3400:00:00
BIOWL1-152026-09-02 00:47:3652.79056-0.04556262°9km/h27042m5.4m/s-47.9°C0%0hPa2.5V18:12:1501:57:2700:00:00
DJ2DS-152026-09-02 00:47:3452.79057-0.04552237°7km/h27037m6.1m/s-47.8°C0.4%-1.0hPa2.5V00:00:0000:00:0000:00:00
DM0DOS-112026-09-02 00:47:3352.79060-0.04548214°7km/h27024m5m/s-47.8°C2.8%0hPa2.5V08:30:0001:57:2400:00:00
BIOWL1-152026-09-02 00:47:2452.79066-0.04497267°13km/h26958m5.8m/s-47.7°C0%0hPa2.6V18:12:1501:57:1300:00:00
BIOWL9-152026-09-02 00:47:2152.79066-0.04503259°13km/h26964m6.1m/s-47.7°C0.3%-1.0hPa2.5V00:00:0000:00:0000:00:00
DM0DOS-112026-09-02 00:47:1552.79080-0.04449232°11km/h26901m5.7m/s-47.8°C2.8%0hPa2.5V08:30:0001:57:0400:00:00
BIOWL1-152026-09-02 00:47:1052.79084-0.04417272°9km/h26866m6.2m/s-47.9°C0%0hPa2.5V18:12:1501:56:5800:00:00
DJ2DS-152026-09-02 00:47:0852.79084-0.04434262°13km/h26883m5.9m/s-47.8°C2.8%0hPa2.6V00:00:0001:57:0100:00:00
DM0DOS-112026-09-02 00:47:0452.79092-0.04406217°18km/h26843m5.9m/s-47.8°C2.8%0hPa2.6V08:30:0001:56:5400:00:00
BIOWL1-152026-09-02 00:46:5752.79117-0.04384172°13km/h26788m5.1m/s-47.9°C0%0hPa2.5V18:12:1501:56:4500:00:00
DM0DOS-112026-09-02 00:46:5252.79120-0.04385157°15km/h26782m7.1m/s-47.9°C2.8%0hPa2.6V08:30:0001:56:4400:00:00
DJ2DS-152026-09-02 00:46:4852.79132-0.04394163°16km/h26762m6.9m/s-47.8°C2.8%0hPa2.5V00:00:0001:56:4100:00:00
DM0DOS-112026-09-02 00:46:4652.79162-0.04403184°13km/h26715m7m/s-47.7°C2.8%0hPa2.5V08:30:0001:56:3300:00:00
BIOWL1-152026-09-02 00:46:4652.79140-0.04396183°18km/h26750m5.1m/s-47.8°C0%0hPa2.5V18:12:1501:56:3900:00:00
BIOWL1-152026-09-02 00:46:3652.79176-0.04400172°15km/h26689m4.9m/s-47.6°C0%0hPa2.5V18:12:1501:56:2900:00:00
DM0DOS-112026-09-02 00:46:3552.79206-0.04400171°24km/h26651m5.5m/s-47.5°C2.7%0hPa2.5V08:30:0001:56:2300:00:00
BIOWL1-152026-09-02 00:46:2652.79229-0.04397205°22km/h26629m5.4m/s-47.5°C0%0hPa2.5V18:12:1501:56:1900:00:00
DM0DOS-112026-09-02 00:46:2252.79253-0.04394155°20km/h26595m5.7m/s-47.5°C2.7%0hPa2.5V08:30:0001:56:1300:00:00
BIOWL1-152026-09-02 00:46:1552.79304-0.04406176°18km/h26542m4.8m/s-47.8°C0%0hPa2.5V18:12:1501:56:0400:00:00
DM0DOS-112026-09-02 00:46:1552.79309-0.04407163°15km/h26536m5.5m/s-47.8°C2.8%0hPa2.5V08:30:0001:56:0300:00:00
DB0UT-72026-09-02 00:46:1252.79299-0.04405176°16km/h26548m6.2m/s-47.7°C2.7%0hPa2.6V00:00:0000:00:0000:00:00
DJ2DS-152026-09-02 00:46:0852.79314-0.04414118°16km/h26523m6.3m/s-47.8°C2.8%0hPa2.6V00:00:0001:56:0100:00:00
DM0DOS-112026-09-02 00:46:0552.79330-0.04454149°15km/h26475m5.5m/s-47.9°C2.8%0hPa2.6V08:30:0001:55:5300:00:00
BIOWL1-152026-09-02 00:46:0152.79345-0.04459155°13km/h26453m6.4m/s-48°C0%0hPa2.5V18:12:1501:55:4900:00:00
DM0DOS-112026-09-02 00:45:5252.79358-0.04497115°24km/h26417m6.6m/s-48°C2.8%0hPa2.5V08:30:0001:55:4300:00:00
BIOWL1-152026-09-02 00:45:4852.79367-0.04520138°18km/h26399m6.6m/s0°C0%0hPa2.6V18:12:1501:55:4000:00:00
DJ2DS-152026-09-02 00:45:4552.79374-0.04525167°11km/h26388m4.5m/s-47.8°C0.4%-1.0hPa2.5V00:00:0000:00:0000:00:00
DB0UT-72026-09-02 00:45:4252.79380-0.04533114°16km/h26371m5.1m/s-47.7°C2.8%0hPa2.5V00:00:0001:55:3500:00:00
DM0DOS-112026-09-02 00:45:4152.79383-0.04548108°22km/h26360m5.8m/s-47.7°C2.8%0hPa2.5V08:30:0001:55:3300:00:00
BIOWL1-152026-09-02 00:45:3952.79402-0.0462998°18km/h26313m6.6m/s0°C0%0hPa2.5V18:12:1501:55:2500:00:00
DM0DOS-112026-09-02 00:45:3552.79401-0.0464078°11km/h26302m5.1m/s-47.7°C2.8%0hPa2.5V08:30:0001:55:2300:00:00
BIOWL1-152026-09-02 00:45:2552.79399-0.0467897°24km/h26274m6.6m/s0°C0%0hPa2.5V18:12:1501:55:1800:00:00
BIOWL9-152026-09-02 00:45:1752.79406-0.04755110°7km/h26229m4.5m/s-48.0°C0.4%-1.0hPa2.6V00:00:0000:00:0000:00:00
DM0DOS-112026-09-02 00:45:1652.79405-0.04785100°15km/h26189m5.7m/s-48.1°C2.8%0hPa2.6V08:30:0001:55:0300:00:00
BIOWL1-152026-09-02 00:45:1452.79407-0.0481796°18km/h26166m5.1m/s0°C0%0hPa2.5V18:12:1501:54:5900:00:00
BIOWL1-152026-09-02 00:45:0652.79410-0.04829130°15km/h26154m5.9m/s0°C0%0hPa2.5V18:12:1501:54:5700:00:00
DM0DOS-112026-09-02 00:45:0352.79418-0.04842124°7km/h26131m4.6m/s-48.3°C2.9%0hPa2.5V08:30:0001:54:5300:00:00
DM0DOS-112026-09-02 00:44:5552.79431-0.04862119°11km/h26073m6.1m/s-48.3°C2.8%0hPa2.6V08:30:0001:54:4300:00:00
DJ2DS-152026-09-02 00:44:4852.79433-0.04874105°15km/h26062m5.5m/s-48.2°C2.8%0hPa2.5V00:00:0001:54:4108:30:00
DM0DOS-112026-09-02 00:44:4252.79442-0.04921104°5km/h26016m6.6m/s-48.3°C2.8%0hPa2.5V08:30:0001:54:3300:00:00
DB0UT-72026-09-02 00:44:4252.79441-0.0491295°13km/h26027m5.2m/s-48.2°C2.8%0hPa2.6V00:00:0001:54:3500:00:00
DM0DOS-112026-09-02 00:44:3552.79469-0.04954137°16km/h25961m6.2m/s-48.5°C2.8%0hPa2.6V08:30:0001:54:2300:00:00
DJ2DS-152026-09-02 00:44:2852.79474-0.04964116°13km/h25949m5.4m/s-48.5°C2.9%0hPa2.5V00:00:0001:54:2100:00:00
DM0DOS-112026-09-02 00:44:2352.79488-0.04997143°15km/h25903m6.4m/s-48.8°C2.9%0hPa2.5V08:30:0001:54:1300:00:00
DM0DOS-112026-09-02 00:44:1552.79506-0.0504279°11km/h25849m5.8m/s-49°C2.9%0hPa2.6V08:30:0001:54:0300:00:00
DB0UT-72026-09-02 00:44:1252.79505-0.05034104°13km/h25859m4.6m/s-49.0°C2.9%0hPa2.5V00:00:0000:00:0000:00:00
DJ2DS-152026-09-02 00:44:0852.79504-0.0505386°7km/h25839m4.3m/s-49.0°C2.9%0hPa2.5V00:00:0001:54:0100:00:00
DM0DOS-112026-09-02 00:44:0252.79506-0.0508496°4km/h25794m6.7m/s-49.4°C2.9%0hPa2.5V08:30:0001:53:5300:00:00
DM0DOS-112026-09-02 00:43:5452.79520-0.05097106°4km/h25736m6.1m/s-49.7°C3%0hPa2.6V08:30:0001:53:4300:00:00
DJ2DS-152026-09-02 00:43:4852.79519-0.0510037°7km/h25726m5.5m/s-49.7°C3.0%0hPa2.5V00:00:0001:53:4100:00:00
BIOWL9-152026-09-02 00:43:4452.79517-0.05095203°4km/h25691m4.6m/s-49.7°C0.4%-1.0hPa2.5V00:00:0000:00:0000:00:00
DM0DOS-112026-09-02 00:43:4252.79521-0.05091220°13km/h25678m6.1m/s-49.8°C3%0hPa2.5V08:30:0001:53:3300:00:00
DM0DOS-112026-09-02 00:43:3452.79535-0.05071226°9km/h25620m5.9m/s-50°C3.1%0hPa2.5V08:30:0001:53:2300:00:00
DJ2DS-152026-09-02 00:43:2852.79538-0.05068195°15km/h25610m4.6m/s-50.0°C3.1%0hPa2.5V00:00:0001:53:2100:00:00
DM0DOS-112026-09-02 00:43:2352.79562-0.05054182°16km/h25563m6.3m/s-50°C3.1%0hPa2.5V08:30:0001:53:1300:00:00
DJ2DS-152026-09-02 00:43:2152.79557-0.05054185°18km/h25569m6.0m/s-50.0°C0.4%-1.0hPa2.5V00:00:0000:00:0000:00:00
DM0DOS-112026-09-02 00:43:1552.79597-0.05065171°18km/h25503m6m/s-50.2°C3.1%0hPa2.5V08:30:0001:53:0300:00:00
BIOWL9-152026-09-02 00:43:1452.79593-0.05065179°15km/h25510m6.2m/s-50.1°C0.4%-1.0hPa2.6V00:00:0000:00:0000:00:00
DJ2DS-152026-09-02 00:43:0852.79606-0.05068165°22km/h25492m5.8m/s-50.1°C3.1%0hPa2.6V00:00:0001:53:0100:00:00
DM0DOS-112026-09-02 00:43:0252.79645-0.05095163°22km/h25443m6m/s-50.1°C3.2%0hPa2.6V08:30:0001:52:5300:00:00
DM0DOS-112026-09-02 00:42:5552.79695-0.05128163°22km/h25384m6.5m/s-49.8°C3.1%0hPa2.5V08:30:0001:52:4300:00:00
DJ2DS-152026-09-02 00:42:4552.79717-0.05139165°11km/h25355m5.7m/s-49.8°C0.4%-1.0hPa2.6V00:00:0000:00:0000:00:00
DM0DOS-112026-09-02 00:42:4252.79734-0.05150137°11km/h25326m5.8m/s-49.9°C3.1%0hPa2.6V08:30:0001:52:3300:00:00
DM0DOS-112026-09-02 00:42:3152.79762-0.05198163°16km/h25266m5.2m/s-50.2°C3.2%0hPa2.5V08:30:0001:52:2300:00:00
DJ2DS-152026-09-02 00:42:2852.79769-0.05201166°9km/h25255m6.5m/s-50.2°C3.2%0hPa2.6V00:00:0001:52:2100:00:00
DM0DOS-112026-09-02 00:42:2552.79766-0.0523385°15km/h25208m5.3m/s-50°C3.1%0hPa2.6V08:30:0001:52:1300:00:00
BIOWL1-152026-09-02 00:42:1452.79781-0.0526870°5km/h25137m5.2m/s-50°C0%0hPa2.6V18:12:1501:52:0100:00:00
DM0DOS-112026-09-02 00:42:1252.79782-0.0526688°2km/h25149m7.2m/s-50°C3.1%0hPa2.5V08:30:0001:52:0300:00:00
BIOWL1-152026-09-02 00:41:5552.79789-0.0534290°13km/h25050m5.8m/s-49.9°C0%0hPa2.6V18:12:1501:51:4600:00:00
DM0DOS-112026-09-02 00:41:5352.79790-0.05357118°11km/h25032m6.5m/s-49.9°C3.1%0hPa2.5V08:30:0001:51:4300:00:00
BIOWL1-152026-09-02 00:41:4552.79801-0.05380165°7km/h24997m5m/s-50°C0%0hPa2.5V18:12:1501:51:3700:00:00
DB0UT-72026-09-02 00:41:4352.79803-0.05380166°7km/h24992m5.2m/s-50.0°C3.1%0hPa2.6V00:00:0000:00:0000:00:00
DM0DOS-112026-09-02 00:41:4252.79805-0.0538790°5km/h24974m5.5m/s-50.1°C3.1%0hPa2.6V08:30:0001:51:3300:00:00
BIOWL9-152026-09-02 00:41:4052.79805-0.0538961°5km/h24968m6.8m/s-50.2°C0.5%-1.0hPa2.6V00:00:0000:00:0000:00:00
BIOWL1-152026-09-02 00:41:3852.79793-0.0542681°11km/h24865m4.6m/s-49.9°C0%0hPa2.6V18:12:1501:51:1400:00:00
DM0DOS-112026-09-02 00:41:3552.79797-0.05410145°2km/h24915m6.7m/s-50.2°C3.2%0hPa2.5V08:30:0001:51:2300:00:00
BIOWL1-152026-09-02 00:41:2452.79793-0.05430106°9km/h24859m6.7m/s-49.9°C0%0hPa2.5V18:12:1501:51:1300:00:00
DM0DOS-112026-09-02 00:41:2252.79793-0.05430105°9km/h24859m6.7m/s-49.9°C3%0hPa2.5V08:30:0001:51:1300:00:00
DM0DOS-112026-09-02 00:41:1552.79810-0.05440107°9km/h24800m6.9m/s-50.2°C3.1%0hPa2.5V08:30:0001:51:0300:00:00
BIOWL1-152026-09-02 00:41:0952.79816-0.05467129°24km/h24777m5.6m/s-50.3°C0%0hPa2.5V18:12:1501:50:5900:00:00
DJ2DS-152026-09-02 00:41:0852.79811-0.05451101°24km/h24789m4.7m/s-50.2°C3.1%0hPa2.5V00:00:0001:51:0100:00:00
DM0DOS-112026-09-02 00:41:0352.79847-0.05496175°22km/h24743m6.4m/s-50.5°C3.2%0hPa2.5V08:30:0001:50:5300:00:00
BIOWL1-152026-09-02 00:41:0152.79853-0.05496183°24km/h24737m5.7m/s-50.5°C0%0hPa2.5V18:12:1501:50:5200:00:00
DM0DOS-112026-09-02 00:40:5652.79888-0.05546136°26km/h24690m4.7m/s-50.5°C3.2%0hPa2.6V08:30:0001:50:4300:00:00
BIOWL1-152026-09-02 00:40:4852.79899-0.05561141°13km/h24672m5.1m/s-50.5°C0%0hPa2.5V18:12:1501:50:4000:00:00
DJ2DS-152026-09-02 00:40:4852.79896-0.05558140°9km/h24678m5.8m/s-50.4°C3.2%0hPa2.6V00:00:0001:50:4100:00:00
DB0UT-72026-09-02 00:40:4352.79910-0.05570148°7km/h24650m5.4m/s-50.6°C3.2%0hPa2.6V00:00:0000:00:0000:00:00
DM0DOS-112026-09-02 00:40:4252.79914-0.05581105°13km/h24634m4.5m/s-50.7°C3.2%0hPa2.5V08:30:0001:50:3300:00:00
BIOWL1-152026-09-02 00:40:4052.79898-0.05620333°5km/h24450m5.2m/s-50.5°C0%0hPa2.6V18:12:1501:49:5900:00:00
BIOWL9-152026-09-02 00:40:3752.79920-0.05594135°11km/h24618m4.7m/s-50.8°C0.5%-1.0hPa2.6V00:00:0000:00:0000:00:00
DM0DOS-112026-09-02 00:40:3552.79921-0.05603109°7km/h24578m4.8m/s-50.6°C3.2%0hPa2.6V08:30:0001:50:2300:00:00
DJ2DS-152026-09-02 00:40:2852.79921-0.0561074°7km/h24567m6.2m/s-50.6°C3.2%0hPa2.6V00:00:0001:50:2100:00:00
BIOWL1-152026-09-02 00:40:2352.79897-0.0561936°2km/h24445m5.3m/s-50.5°C0%0hPa2.6V18:12:1501:49:5800:00:00
BIOWL1-152026-09-02 00:40:1352.79897-0.05620108°4km/h24439m4.9m/s-50.5°C0%0hPa2.6V18:12:1501:49:5700:00:00
DM0DOS-112026-09-02 00:40:1252.79902-0.05629292°4km/h24470m4.9m/s-50.5°C3.2%0hPa2.5V08:30:0001:50:0300:00:00
DJ2DS-152026-09-02 00:40:0852.79900-0.05624299°5km/h24460m4.7m/s-50.5°C3.2%0hPa2.5V00:00:0001:50:0100:00:00
BIOWL9-152026-09-02 00:40:0652.79898-0.05620332°5km/h24450m5.2m/s-50.5°C0.5%-1.0hPa2.5V00:00:0000:00:0000:00:00
DM0DOS-112026-09-02 00:40:0552.79900-0.0562678°2km/h24418m4.9m/s-50.6°C3.2%0hPa2.5V08:30:0001:49:5300:00:00
BIOWL1-152026-09-02 00:39:5452.79903-0.05654111°11km/h24341m5.8m/s0°C0%0hPa2.6V18:12:1501:49:3900:00:00
DM0DOS-112026-09-02 00:39:5352.79902-0.05644117°7km/h24364m4.6m/s-51°C3.2%0hPa2.5V08:30:0001:49:4300:00:00
DJ2DS-152026-09-02 00:39:4752.79902-0.0565096°9km/h24347m5.0m/s-51.0°C3.2%0hPa2.5V00:00:0001:49:4000:00:00
DB0UT-72026-09-02 00:39:4352.79905-0.05665105°7km/h24326m6.0m/s-51.1°C3.3%0hPa2.6V00:00:0000:00:0000:00:00
DM0DOS-112026-09-02 00:39:4252.79906-0.05671116°9km/h24310m5.7m/s-51.1°C3.3%0hPa2.6V08:30:0001:49:3300:00:00
BIOWL1-152026-09-02 00:39:4152.79912-0.0571261°5km/h24254m5.7m/s0°C0%0hPa2.5V18:12:1501:49:2300:00:00
BIOWL9-152026-09-02 00:39:3552.79913-0.05690110°7km/h24283m5.3m/s-51.3°C0.5%-1.0hPa2.5V00:00:0000:00:0000:00:00
DM0DOS-112026-09-02 00:39:3252.79912-0.0571260°5km/h24254m5.7m/s-51.4°C3.3%0hPa2.5V08:30:0001:49:2300:00:00
DJ2DS-152026-09-02 00:39:2752.79910-0.0571994°5km/h24239m4.0m/s-51.4°C3.3%0hPa2.6V00:00:0001:49:2000:00:00
DM0DOS-112026-09-02 00:39:2152.79913-0.0572078°2km/h24201m5.7m/s-51.4°C3.3%0hPa2.6V08:30:0001:49:1300:00:00
BIOWL1-152026-09-02 00:39:2152.79913-0.0572078°2km/h24201m5.7m/s0°C0%0hPa2.6V18:12:1501:49:1300:00:00
DM0DOS-112026-09-02 00:39:1552.79903-0.05705281°7km/h24146m5.7m/s-51.7°C3.4%0hPa2.5V08:30:0001:49:0300:00:00
BIOWL1-152026-09-02 00:39:1152.79903-0.05709295°11km/h24152m5.5m/s0°C0%0hPa2.5V18:12:1501:49:0400:00:00
DJ2DS-152026-09-02 00:39:0752.79903-0.05699265°5km/h24129m5.7m/s-51.7°C3.4%0hPa2.5V00:00:0001:49:0000:00:00
BIOWL9-152026-09-02 00:39:0452.79908-0.05696191°5km/h24107m5.0m/s-51.7°C0.5%-1.0hPa2.5V00:00:0000:00:0000:00:00
DM0DOS-112026-09-02 00:39:0252.79911-0.05690244°7km/h24091m4.7m/s-51.7°C3.3%0hPa2.5V08:30:0001:48:5300:00:00
BIOWL1-152026-09-02 00:39:0052.79912-0.05688228°7km/h24086m6.1m/s0°C0%0hPa2.5V18:12:1501:48:5200:00:00
DM0DOS-112026-09-02 00:38:5552.79920-0.05681116°9km/h24037m5.5m/s-51.7°C3.3%0hPa2.5V08:30:0001:48:4300:00:00
DJ2DS-152026-09-02 00:38:4752.79920-0.0568961°13km/h24021m4.0m/s-51.7°C3.3%0hPa2.5V00:00:0001:48:4008:30:00
DB0UT-72026-09-02 00:38:4352.79922-0.05700120°16km/h24000m3.7m/s-51.7°C3.4%0hPa2.5V00:00:0000:00:0000:00:00
DM0DOS-112026-09-02 00:38:4252.79923-0.0570964°5km/h23983m5.5m/s-51.9°C3.4%0hPa2.5V08:30:0001:48:3300:00:00
DM0DOS-112026-09-02 00:38:3552.79929-0.0577899°18km/h23927m5.6m/s-51.8°C3.3%0hPa2.6V08:30:0001:48:2300:00:00
DJ2DS-152026-09-02 00:38:3252.79926-0.0576199°22km/h23938m6.5m/s-51.8°C0.5%-1.0hPa2.5V00:00:0000:00:0000:00:00
DJ2DS-152026-09-02 00:38:2752.79929-0.0579489°16km/h23910m6.3m/s-51.8°C3.4%0hPa2.5V00:00:0001:48:2000:00:00
DM0DOS-112026-09-02 00:38:2352.79924-0.0584589°22km/h23871m5.5m/s-52.1°C3.4%0hPa2.5V08:30:0001:48:1300:00:00
DM0DOS-112026-09-02 00:38:1652.79918-0.0591952°18km/h23815m4.8m/s-52°C3.5%0hPa2.6V08:30:0001:48:0300:00:00
DB0UT-72026-09-02 00:38:1352.79922-0.0589990°16km/h23832m4.8m/s-52.1°C3.5%0hPa2.6V00:00:0001:48:0600:00:00
DJ2DS-152026-09-02 00:38:0752.79909-0.0594060°16km/h23798m5.0m/s-51.9°C3.5%0hPa2.6V00:00:0001:48:0000:00:00
DM0DOS-112026-09-02 00:38:0352.79890-0.0598761°20km/h23760m6m/s-51.9°C3.5%0hPa2.6V08:30:0001:47:5300:00:00
DM0DOS-112026-09-02 00:37:5552.79866-0.0603633°11km/h23702m6.1m/s-51.9°C3.4%0hPa2.5V08:30:0001:47:4300:00:00
DJ2DS-152026-09-02 00:37:4552.79847-0.0604826°13km/h23674m6.4m/s-51.9°C3.5%0hPa2.5V00:00:0001:47:3800:00:00
DB0UT-72026-09-02 00:37:4352.79838-0.0605528°15km/h23663m5.7m/s-51.8°C3.5%0hPa2.5V00:00:0000:00:0000:00:00
DM0DOS-112026-09-02 00:37:4252.79826-0.0606213°16km/h23646m4.2m/s-51.7°C3.4%0hPa2.6V08:30:0001:47:3300:00:00
DM0DOS-112026-09-02 00:37:3552.79800-0.0608413°9km/h23590m6.3m/s-51.5°C3.3%0hPa2.5V08:30:0001:47:2300:00:00
DJ2DS-152026-09-02 00:37:2552.79788-0.06083345°11km/h23562m5.0m/s-51.5°C3.3%0hPa2.5V00:00:0001:47:1800:00:00
DM0DOS-112026-09-02 00:37:2252.79779-0.0609357°13km/h23534m6.5m/s-51.8°C3.4%0hPa2.5V08:30:0001:47:1300:00:00
DJ2DS-152026-09-02 00:37:2052.79779-0.0609357°13km/h23534m6.5m/s-51.8°C0.5%-1.0hPa2.6V00:00:0000:00:0000:00:00
DM0DOS-112026-09-02 00:37:1552.79760-0.0612654°15km/h23476m5.8m/s-52.1°C3.5%0hPa2.6V08:30:0001:47:0300:00:00
DJ2DS-152026-09-02 00:37:0552.79751-0.0615553°11km/h23449m6.4m/s-51.9°C3.5%0hPa2.5V00:00:0001:46:5800:00:00
DM0DOS-112026-09-02 00:37:0252.79737-0.0618055°15km/h23420m5.2m/s-51.8°C3.5%0hPa2.5V08:30:0001:46:5300:00:00
BIOWL1-152026-09-02 00:36:5852.79729-0.0620071°11km/h23397m6.4m/s-51.6°C0%0hPa2.5V18:12:1501:46:4900:00:00
DM0DOS-112026-09-02 00:36:5452.79720-0.0621844°11km/h23364m5.9m/s-51.4°C3.4%0hPa2.6V08:30:0001:46:4300:00:00
BIOWL1-152026-09-02 00:36:5252.79717-0.0622340°7km/h23353m4.5m/s-51.4°C0%0hPa2.5V18:12:1501:46:4100:00:00
DJ2DS-152026-09-02 00:36:4552.79711-0.0622728°7km/h23338m4.6m/s-51.3°C3.3%0hPa2.6V00:00:0001:46:3800:00:00
DM0DOS-112026-09-02 00:36:4252.79707-0.0624172°7km/h23308m4.7m/s-51.4°C3.4%0hPa2.6V08:30:0001:46:3300:00:00
BIOWL1-152026-09-02 00:36:3752.79709-0.06236260°11km/h23263m4.5m/s-51.5°C0%0hPa2.6V18:12:1501:46:2500:00:00
DM0DOS-112026-09-02 00:36:3152.79708-0.06227282°9km/h23253m6.1m/s-51.4°C3.4%0hPa2.5V08:30:0001:46:2300:00:00
BIOWL1-152026-09-02 00:36:2752.79708-0.06224146°5km/h23236m6m/s-51.3°C0%0hPa2.6V18:12:1501:46:2000:00:00
DM0DOS-112026-09-02 00:36:2552.79719-0.06247194°7km/h23196m4.7m/s-51.4°C3.3%0hPa2.5V08:30:0001:46:1300:00:00
DJ2DS-152026-09-02 00:36:2552.79712-0.06230127°9km/h23225m5.8m/s-51.2°C3.3%0hPa2.6V00:00:0001:46:1800:00:00
BIOWL1-152026-09-02 00:36:1452.79740-0.06279101°13km/h23105m6.2m/s-51.6°C0%0hPa2.6V18:12:1501:45:5600:00:00
DM0DOS-112026-09-02 00:36:1252.79733-0.06258112°11km/h23144m5.2m/s-51.5°C3.3%0hPa2.5V08:30:0001:46:0300:00:00
BIOWL1-152026-09-02 00:36:0952.79743-0.06290108°18km/h23094m5.2m/s-51.6°C0%0hPa2.5V18:12:1501:45:5400:00:00
DJ2DS-152026-09-02 00:36:0852.79735-0.06265133°7km/h23133m6.2m/s-51.5°C0.5%-1.0hPa2.5V00:00:0000:00:0000:00:00
DM0DOS-112026-09-02 00:36:0552.79744-0.06298101°20km/h23088m6.7m/s-51.7°C3.3%0hPa2.5V08:30:0001:45:5300:00:00
DJ2DS-152026-09-02 00:36:0552.79739-0.06271117°16km/h23117m5.9m/s-51.5°C3.3%0hPa2.5V00:00:0001:45:5800:00:00
BIOWL9-152026-09-02 00:35:5852.79746-0.06316103°20km/h23076m5.3m/s-51.7°C0.5%-1.0hPa2.5V00:00:0000:00:0000:00:00
DM0DOS-112026-09-02 00:35:5352.79752-0.0637693°20km/h23022m6.7m/s-52°C3.4%0hPa2.5V08:30:0001:45:4100:00:00
BIOWL1-152026-09-02 00:35:5252.79750-0.0635378°11km/h23043m4.8m/s-52°C0%0hPa2.5V18:12:1501:45:4500:00:00
DJ2DS-152026-09-02 00:35:4552.79753-0.0640995°20km/h23005m5.8m/s-51.9°C3.4%0hPa2.6V00:00:0001:45:3808:30:00
DM0DOS-112026-09-02 00:35:4352.79755-0.0646473°7km/h22965m5.8m/s-51.9°C3.4%0hPa2.6V08:30:0001:45:3100:00:00
BIOWL1-152026-09-02 00:35:4252.79757-0.0644198°22km/h22988m5.1m/s-51.9°C0%0hPa2.5V18:12:1501:45:3500:00:00
DM0DOS-112026-09-02 00:35:3352.79743-0.0654166°22km/h22913m6.7m/s-52°C3.5%0hPa2.6V08:30:0001:45:2100:00:00
BIOWL1-152026-09-02 00:35:3152.79745-0.0653369°20km/h22919m4.6m/s-52°C0%0hPa2.5V18:12:1501:45:2200:00:00
BIOWL9-152026-09-02 00:35:2752.79738-0.0655858°24km/h22901m5.4m/s0°C-1.0%-1.0hPa2.5V00:00:0000:00:0000:00:00
DJ2DS-152026-09-02 00:35:2552.79734-0.0656659°20km/h22895m6.4m/s-51.8°C3.5%0hPa2.5V00:00:0001:45:1800:00:00
BIOWL1-152026-09-02 00:35:2152.79694-0.0671364°18km/h22789m6m/s-51.7°C0%0hPa2.5V18:12:1501:44:5900:00:00
DM0DOS-112026-09-02 00:35:1252.79699-0.0669960°18km/h22800m4.4m/s-51.8°C3.5%0hPa2.5V08:30:0001:45:0100:00:00
BIOWL1-152026-09-02 00:35:1052.79687-0.0674264°20km/h22766m5.4m/s-51.7°C0%0hPa2.6V18:12:1501:44:5500:00:00
DJ2DS-152026-09-02 00:35:0552.79692-0.0672069°13km/h22783m5.2m/s-51.7°C3.4%0hPa2.5V00:00:0001:44:5800:00:00
DM0DOS-112026-09-02 00:35:0252.79683-0.0676784°11km/h22744m5.8m/s-51.6°C3.4%0hPa2.5V08:30:0001:44:5100:00:00
BIOWL1-152026-09-02 00:34:5852.79681-0.0677551°9km/h22733m5m/s-51.6°C0%0hPa2.6V18:12:1501:44:4900:00:00
DJ2DS-152026-09-02 00:34:5652.79681-0.0677551°9km/h22733m5.0m/s-51.6°C0.6%-1.0hPa2.5V00:00:0000:00:0000:00:00
DM0DOS-112026-09-02 00:34:5252.79669-0.0679072°11km/h22688m6.4m/s-51.5°C3.5%0hPa2.5V08:30:0001:44:4100:00:00
BIOWL1-152026-09-02 00:34:4552.79670-0.0680593°11km/h22672m5.9m/s0°C0%0hPa2.6V18:12:1501:44:3800:00:00
DM0DOS-112026-09-02 00:34:4252.79667-0.06816304°5km/h22633m5.8m/s-51.2°C3.4%0hPa2.6V08:30:0001:44:3100:00:00
BIOWL1-152026-09-02 00:34:3752.79664-0.0681769°4km/h22618m5.7m/s0°C0%0hPa2.5V18:12:1501:44:2800:00:00
DM0DOS-112026-09-02 00:34:3152.79667-0.06841132°5km/h22579m5.2m/s-51.1°C3.3%0hPa2.6V08:30:0001:44:2100:00:00
DB0UT-72026-09-02 00:34:2652.79668-0.06842331°13km/h22568m5.2m/s-51.0°C3.3%0hPa2.5V00:00:0001:44:1900:00:00
DJ2DS-152026-09-02 00:34:2552.79668-0.06842265°11km/h22563m4.3m/s-51.0°C3.3%0hPa2.5V00:00:0001:44:1800:00:00
DM0DOS-112026-09-02 00:34:2152.79678-0.06855105°18km/h22525m5.7m/s-51°C3.3%0hPa2.5V08:30:0001:44:1100:00:00
DJ2DS-152026-09-02 00:34:2052.79675-0.06844122°9km/h22536m6.1m/s-51.1°C0.6%-1.0hPa2.5V00:00:0000:00:0000:00:00
DJ2DS-152026-09-02 00:34:0552.79692-0.06912128°18km/h22456m5.9m/s-51.0°C3.2%0hPa2.5V00:00:0001:43:5800:00:00
DM0DOS-112026-09-02 00:34:0252.79701-0.0694899°22km/h22427m5.8m/s-51.2°C3.3%0hPa2.5V08:30:0001:43:5300:00:00
DM0DOS-112026-09-02 00:33:5652.79706-0.0700489°15km/h22374m5.2m/s-51.7°C3.4%0hPa2.5V08:30:0001:43:4300:00:00
DJ2DS-152026-09-02 00:33:4552.79710-0.0706192°33km/h22347m6.1m/s-51.6°C3.4%0hPa2.5V00:00:0001:43:3800:00:00
DM0DOS-112026-09-02 00:33:4352.79710-0.0712986°27km/h22320m4.5m/s-51.7°C3.4%0hPa2.6V08:30:0001:43:3300:00:00
DM0DOS-112026-09-02 00:33:3552.79694-0.0725085°37km/h22267m6m/s-52.3°C3.5%0hPa2.6V08:30:0001:43:2300:00:00
DB0UT-72026-09-02 00:33:2652.79688-0.0731073°29km/h22246m4.6m/s-52.3°C3.5%0hPa2.5V00:00:0001:43:1900:00:00
DJ2DS-152026-09-02 00:33:2552.79685-0.0732475°31km/h22240m5.8m/s-52.2°C3.5%0hPa2.5V00:00:0001:43:1800:00:00
DM0DOS-112026-09-02 00:33:2352.79670-0.0739269°31km/h22214m5.6m/s-52.2°C3.5%0hPa2.5V08:30:0001:43:1300:00:00
DM0DOS-112026-09-02 00:33:1552.79649-0.0750964°26km/h22160m6.7m/s-51.9°C3.5%0hPa2.5V08:30:0001:43:0300:00:00
DJ2DS-152026-09-02 00:33:0552.79630-0.0756063°26km/h22134m4.1m/s-51.8°C3.4%0hPa2.5V00:00:0001:42:5800:00:00
DM0DOS-112026-09-02 00:33:0252.79613-0.0761271°27km/h22107m4.6m/s-51.8°C3.4%0hPa2.5V08:30:0001:42:5300:00:00
DB0UT-72026-09-02 00:32:5652.79602-0.0764853°18km/h22087m4.6m/s-51.7°C3.4%0hPa2.6V00:00:0000:00:0000:00:00
DM0DOS-112026-09-02 00:32:5052.79573-0.0770151°20km/h22042m5.2m/s-51.9°C3.4%0hPa2.6V08:30:0001:42:4100:00:00
DJ2DS-152026-09-02 00:32:4552.79563-0.0772149°18km/h22026m5.1m/s-52.0°C3.5%0hPa2.5V00:00:0001:42:3808:30:00
DM0DOS-112026-09-02 00:32:3352.79552-0.0782292°18km/h21943m6.6m/s-51.6°C3.4%0hPa2.6V08:30:0001:42:2400:00:00
DJ2DS-152026-09-02 00:32:3252.79552-0.0782292°18km/h21943m6.6m/s-51.7°C0.6%-1.0hPa2.6V00:00:0000:00:0000:00:00
DB0UT-72026-09-02 00:32:2652.79552-0.0785693°22km/h21913m6.5m/s-51.4°C3.4%0hPa2.6V00:00:0001:42:1900:00:00
DJ2DS-152026-09-02 00:32:2552.79552-0.0786393°20km/h21907m5.7m/s-51.4°C3.4%0hPa2.6V00:00:0001:42:1800:00:00
DM0DOS-112026-09-02 00:32:2352.79548-0.0789361°22km/h21884m4.5m/s-51.4°C3.4%0hPa2.6V08:30:0001:42:1400:00:00
DM0DOS-112026-09-02 00:32:1352.79531-0.0797467°15km/h21828m6.3m/s-51.3°C3.3%0hPa2.5V08:30:0001:42:0400:00:00
DM0DOS-112026-09-02 00:32:0652.79509-0.0805771°27km/h21774m5.9m/s-51.8°C3.4%0hPa2.5V08:30:0001:41:5400:00:00
DJ2DS-152026-09-02 00:32:0552.79521-0.0801666°24km/h21795m6.1m/s-51.3°C3.3%0hPa2.5V00:00:0001:41:5800:00:00
DJ2DS-152026-09-02 00:31:5652.79496-0.0811371°20km/h21740m6.6m/s-51.8°C0.6%-1.0hPa2.5V00:00:0000:00:0000:00:00
DM0DOS-112026-09-02 00:31:5452.79489-0.0814362°22km/h21718m4.2m/s-51.9°C3.3%0hPa2.5V08:30:0001:41:4400:00:00
DJ2DS-152026-09-02 00:31:4552.79481-0.0820791°27km/h21685m5.6m/s-52.2°C3.5%0hPa2.5V00:00:0001:41:3800:00:00
DM0DOS-112026-09-02 00:31:4452.79484-0.08250100°26km/h21660m5.8m/s-52.3°C3.5%0hPa2.6V08:30:0001:41:3400:00:00
DM0DOS-112026-09-02 00:31:3352.79490-0.0836188°29km/h21605m5m/s-52.1°C3.5%0hPa2.5V08:30:0001:41:2400:00:00
DB0UT-72026-09-02 00:31:2652.79481-0.0842183°20km/h21576m5.3m/s-52.1°C3.5%0hPa2.5V00:00:0001:41:1900:00:00
DJ2DS-152026-09-02 00:31:2552.79481-0.0843187°20km/h21572m4.4m/s-52.1°C3.5%0hPa2.5V00:00:0001:41:1800:00:00
DM0DOS-112026-09-02 00:31:2252.79478-0.0846285°16km/h21548m6.2m/s-52.3°C3.5%0hPa2.5V08:30:0001:41:1400:00:00
DJ2DS-152026-09-02 00:31:1952.79477-0.0847770°18km/h21538m5.4m/s-52.5°C0.6%-1.0hPa2.6V00:00:0000:00:0000:00:00
DM0DOS-112026-09-02 00:31:1652.79447-0.0855849°24km/h21493m4.8m/s-52.3°C3.6%0hPa2.6V08:30:0001:41:0400:00:00
DJ2DS-152026-09-02 00:31:0552.79437-0.0858445°15km/h21459m4.2m/s-51.9°C3.6%0hPa2.6V00:00:0001:40:5800:00:00
DM0DOS-112026-09-02 00:30:5652.79406-0.0865969°9km/h21380m5.2m/s-51.3°C3.4%0hPa2.6V08:30:0001:40:4400:00:00
DB0UT-72026-09-02 00:30:5652.79410-0.0864244°7km/h21409m5.3m/s-51.5°C3.5%0hPa2.5V00:00:0000:00:0000:00:00
DJ2DS-152026-09-02 00:30:4552.79403-0.0868161°7km/h21347m5.2m/s-50.9°C3.4%0hPa2.5V00:00:0001:40:3800:00:00
DJ2DS-152026-09-02 00:30:4352.79400-0.0868957°7km/h21335m5.7m/s-50.9°C0.6%-1.0hPa2.5V00:00:0000:00:0000:00:00
DM0DOS-112026-09-02 00:30:4252.79398-0.0869458°7km/h21324m6.2m/s-50.8°C3.3%0hPa2.5V08:30:0001:40:3400:00:00
DJ2DS-152026-09-02 00:30:2552.79396-0.08723250°7km/h21234m4.0m/s-50.6°C3.3%0hPa2.5V00:00:0001:40:1800:00:00
DJ2DS-152026-09-02 00:30:0552.79419-0.08742154°9km/h21129m5.1m/s-50.1°C3.2%0hPa2.5V00:00:0001:39:5800:00:00
DB0UT-72026-09-02 00:29:5552.79442-0.08758155°15km/h21079m5.2m/s-49.8°C3.1%0hPa2.5V00:00:0000:00:0000:00:00
DJ2DS-152026-09-02 00:29:4552.79459-0.08781135°15km/h21029m4.7m/s-49.8°C3.1%0hPa2.5V00:00:0001:39:3808:30:00
DJ2DS-152026-09-02 00:29:3152.79475-0.08851109°16km/h20958m5.2m/s-50.5°C0.6%-1.0hPa2.5V00:00:0000:00:0000:00:00
DJ2DS-152026-09-02 00:29:2552.79479-0.0889395°31km/h20927m4.2m/s-50.7°C3.2%0hPa2.5V00:00:0001:39:1800:00:00
DB0UT-72026-09-02 00:29:2452.79479-0.0890193°35km/h20923m3.8m/s-50.8°C3.2%0hPa2.5V00:00:0001:39:1700:00:00
DJ2DS-152026-09-02 00:29:0552.79451-0.0915065°37km/h20825m5.9m/s-51.8°C3.4%0hPa2.5V00:00:0001:38:5800:00:00
DB0UT-72026-09-02 00:28:5452.79410-0.0931667°27km/h20771m6.1m/s0°C0%0hPa2.5V00:00:0000:00:0000:00:00
DM0DOS-112026-09-02 00:28:5152.79382-0.0940157°29km/h20733m4.8m/s-51.8°C3.5%0hPa2.5V08:30:0001:38:4000:00:00
DJ2DS-152026-09-02 00:28:4552.79376-0.0942272°26km/h20723m5.7m/s-51.7°C3.5%0hPa2.5V00:00:0001:38:3800:00:00
DM0DOS-112026-09-02 00:28:3152.79334-0.0956768°24km/h20645m4.2m/s-51.8°C3.4%0hPa2.5V08:30:0001:38:2300:00:00
DJ2DS-152026-09-02 00:28:2552.79325-0.0961774°27km/h20619m4.0m/s-52.2°C3.5%0hPa2.5V00:00:0001:38:1800:00:00
DB0UT-72026-09-02 00:28:2452.79324-0.0962683°27km/h20614m5.6m/s0°C0%0hPa2.5V00:00:0001:38:1700:00:00
DM0DOS-112026-09-02 00:28:2152.79324-0.0966093°20km/h20591m4.4m/s-52.4°C3.6%0hPa2.5V08:30:0001:38:1300:00:00
DJ2DS-152026-09-02 00:28:1952.79325-0.0966996°18km/h20587m3.8m/s-52.3°C0.7%-1.0hPa2.5V00:00:0000:00:0000:00:00
DM0DOS-112026-09-02 00:28:1152.79337-0.0977397°37km/h20541m5m/s-52.1°C3.5%0hPa2.5V08:30:0001:38:0300:00:00
DJ2DS-152026-09-02 00:28:0552.79341-0.0984798°31km/h20515m4.1m/s-51.9°C3.4%0hPa2.5V00:00:0001:37:5800:00:00
DM0DOS-112026-09-02 00:28:0152.79345-0.09908100°29km/h20490m5.1m/s-52.1°C3.5%0hPa2.5V08:30:0001:37:5300:00:00
DB0UT-72026-09-02 00:27:5452.79352-0.0998194°20km/h20461m5.0m/s0°C0%0hPa2.6V00:00:0000:00:0000:00:00
DM0DOS-112026-09-02 00:27:5152.79349-0.1003978°33km/h20440m4.6m/s-52.2°C3.6%0hPa2.6V08:30:0001:37:4300:00:00
DJ2DS-152026-09-02 00:27:4552.79347-0.1009889°24km/h20415m5.8m/s-52.1°C3.5%0hPa2.6V00:00:0001:37:3800:00:00
DM0DOS-112026-09-02 00:27:4152.79349-0.1014187°20km/h20389m5.3m/s-52.4°C3.6%0hPa2.6V08:30:0001:37:3300:00:00
DM0DOS-112026-09-02 00:27:3152.79334-0.1024280°29km/h20338m5.5m/s-52.2°C3.6%0hPa2.6V08:30:0001:37:2300:00:00
DJ2DS-152026-09-02 00:27:2552.79328-0.1029077°20km/h20311m5.9m/s-51.9°C3.6%0hPa2.6V00:00:0001:37:1800:00:00
DM0DOS-112026-09-02 00:27:2152.79322-0.1033270°22km/h20283m5m/s-51.8°C3.6%0hPa2.6V08:30:0001:37:1300:00:00
DM0DOS-112026-09-02 00:27:1152.79314-0.1042487°13km/h20230m4.2m/s-51.5°C3.5%0hPa2.5V08:30:0001:37:0300:00:00
DJ2DS-152026-09-02 00:27:0552.79313-0.1045474°16km/h20202m5.0m/s-51.2°C3.5%0hPa2.6V00:00:0001:36:5800:00:00
DM0DOS-112026-09-02 00:27:0152.79309-0.1049679°20km/h20176m5.2m/s-51°C3.4%0hPa2.6V08:30:0001:36:5300:00:00
DM0DOS-112026-09-02 00:26:5652.79310-0.1055789°11km/h20122m6.2m/s-50.6°C3.3%0hPa2.6V08:30:0001:36:4300:00:00
DM0DOS-112026-09-02 00:26:4552.79313-0.1060473°2km/h20069m5.8m/s-50.7°C3.4%0hPa2.6V08:30:0001:36:3300:00:00
DJ2DS-152026-09-02 00:26:4552.79313-0.10587105°11km/h20096m4.6m/s-50.8°C3.4%0hPa2.6V00:00:0001:36:3808:30:00
DB0UT-72026-09-02 00:26:4352.79314-0.1059872°7km/h20085m4.6m/s0°C0%0hPa2.6V00:00:0001:36:3600:00:00
DM0DOS-112026-09-02 00:26:3552.79320-0.10637127°20km/h20012m6.8m/s-50.2°C3.3%0hPa2.6V08:30:0001:36:2300:00:00
DM0DOS-112026-09-02 00:26:2552.79336-0.1068584°15km/h19954m5.2m/s-49.7°C3.2%0hPa2.5V08:30:0001:36:1300:00:00
DJ2DS-152026-09-02 00:26:2552.79334-0.10660118°15km/h19984m6.1m/s-49.9°C3.3%0hPa2.6V00:00:0001:36:1800:00:00
DM0DOS-112026-09-02 00:26:1552.79357-0.10737169°7km/h19895m5.1m/s-49.5°C3.1%0hPa2.6V08:30:0001:36:0300:00:00
DJ2DS-152026-09-02 00:26:0352.79368-0.10773113°27km/h19853m5.3m/s0°C0%0hPa2.7V00:00:0001:35:5600:00:00
BIOWL1-152026-09-02 00:25:3452.79377-0.1112766°40km/h19681m6.4m/s0°C0%0hPa2.7V18:12:1501:35:2700:00:00
DM0DOS-112026-09-02 00:25:2652.79344-0.1134379°37km/h19609m6.1m/s-49.4°C3.1%0hPa2.6V08:30:0001:35:1400:00:00
BIOWL1-152026-09-02 00:25:2452.79347-0.1129780°38km/h19626m6.5m/s0°C0%0hPa2.7V18:12:1501:35:1700:00:00
BIOWL1-152026-09-02 00:25:1252.79331-0.1148387°40km/h19562m6.1m/s0°C0%0hPa2.6V18:12:1501:35:0500:00:00
DM0DOS-112026-09-02 00:25:0552.79338-0.11650101°38km/h19502m5.8m/s-49.7°C3.1%0hPa2.7V08:30:0001:34:5300:00:00
DJ2DS-152026-09-02 00:24:5752.79345-0.11699108°40km/h19486m6.0m/s0°C0%0hPa2.6V00:00:0001:34:5000:00:00
DM0DOS-112026-09-02 00:24:5152.79374-0.11833105°40km/h19443m5m/s-49.9°C3.1%0hPa2.6V08:30:0001:34:4200:00:00
DM0DOS-112026-09-02 00:24:4152.79394-0.1198393°38km/h19393m6.1m/s-50.3°C3.1%0hPa2.6V08:30:0001:34:3200:00:00
DJ2DS-152026-09-02 00:24:3752.79394-0.1201488°42km/h19382m6.0m/s0°C0%0hPa2.6V00:00:0001:34:3000:00:00
DM0DOS-112026-09-02 00:24:3552.79382-0.1215283°40km/h19340m5.5m/s-51.2°C3.3%0hPa2.6V08:30:0001:34:2200:00:00
DM0DOS-112026-09-02 00:24:2352.79374-0.1231879°46km/h19291m5m/s-51.4°C3.3%0hPa2.6V08:30:0001:34:1200:00:00
DM0DOS-112026-09-02 00:24:0552.79355-0.1265481°44km/h19205m4.2m/s-52.5°C3.6%0hPa2.6V08:30:0001:33:5300:00:00
DM0DOS-112026-09-02 00:23:5452.79357-0.1281797°26km/h19152m4.1m/s-52.4°C3.6%0hPa2.6V08:30:0001:33:4200:00:00
DM0DOS-112026-09-02 00:23:4452.79360-0.1294293°29km/h19105m5.3m/s-52.3°C3.5%0hPa2.6V08:30:0001:33:3200:00:00
DJ2DS-152026-09-02 00:23:4452.79358-0.1287687°37km/h19128m4.7m/s0°C0%0hPa2.6V00:00:0001:33:3700:00:00
DM0DOS-112026-09-02 00:23:3452.79369-0.1308195°40km/h19058m4.4m/s-52.7°C3.6%0hPa2.6V08:30:0001:33:2200:00:00
DM0DOS-112026-09-02 00:23:2452.79387-0.13236104°42km/h19009m4.6m/s-52.6°C3.6%0hPa2.6V08:30:0001:33:1200:00:00
DJ2DS-152026-09-02 00:23:2152.79381-0.13203105°40km/h19019m3.3m/s0°C0%0hPa2.6V00:00:0001:33:1400:00:00
DM0DOS-112026-09-02 00:23:1052.79410-0.1339099°37km/h18964m5m/s-53°C3.6%0hPa2.6V08:30:0001:33:0200:00:00
DM0DOS-112026-09-02 00:23:0452.79425-0.13564102°42km/h18916m5.3m/s-53.6°C3.8%0hPa2.6V08:30:0001:32:5200:00:00
BIOWL1-152026-09-02 00:23:0452.79418-0.13508100°46km/h18931m5.6m/s-53.4°C0%0hPa2.7V18:12:1501:32:5500:00:00
BIOWL9-152026-09-02 00:23:0152.79420-0.13527100°46km/h18926m4.0m/s-53.4°C0.8%-1.0hPa2.6V00:00:0000:00:0000:00:00
DJ2DS-152026-09-02 00:22:5952.79425-0.13564103°40km/h18916m5.2m/s0°C0%0hPa2.6V00:00:0001:32:5200:00:00
DM0DOS-112026-09-02 00:22:5152.79449-0.13744112°38km/h18865m5.6m/s-53.4°C3.8%0hPa2.6V08:30:0001:32:4100:00:00
BIOWL1-152026-09-02 00:22:5052.79449-0.13744112°38km/h18865m5.6m/s-53.4°C0%0hPa2.6V18:12:1501:32:4100:00:00
DM0DOS-112026-09-02 00:22:4352.79483-0.13887103°38km/h18815m4m/s-53.3°C3.8%0hPa2.6V08:30:0001:32:3100:00:00
BIOWL1-152026-09-02 00:22:4052.79488-0.13917109°33km/h18805m5.5m/s-53.2°C0%0hPa2.7V18:12:1501:32:2900:00:00
DM0DOS-112026-09-02 00:22:3352.79520-0.14012117°35km/h18767m4.4m/s-53°C3.7%0hPa2.6V08:30:0001:32:2100:00:00
BIOWL1-152026-09-02 00:22:2752.79524-0.14024118°35km/h18763m4.9m/s-53°C0%0hPa2.7V18:12:1501:32:2000:00:00
DM0DOS-112026-09-02 00:22:1952.79548-0.14137113°35km/h18720m3.9m/s-52.9°C3.6%0hPa2.6V08:30:0001:32:1100:00:00
BIOWL1-152026-09-02 00:22:1752.79551-0.14150115°37km/h18716m5.3m/s-53°C0%0hPa2.7V18:12:1501:32:1000:00:00
DM0DOS-112026-09-02 00:22:1352.79581-0.14280115°37km/h18671m4.7m/s-53°C3.7%0hPa2.6V08:30:0001:32:0100:00:00
BIOWL1-152026-09-02 00:22:0752.79588-0.14308110°37km/h18663m5.5m/s-53°C0%0hPa2.7V18:12:1501:31:5900:00:00
DM0DOS-112026-09-02 00:22:0352.79612-0.14440112°44km/h18626m4.9m/s-52.9°C3.7%0hPa2.6V08:30:0001:31:5100:00:00
BIOWL1-152026-09-02 00:21:5752.79619-0.14473111°42km/h18617m3.8m/s-52.8°C0%0hPa2.7V18:12:1501:31:4900:00:00
DM0DOS-112026-09-02 00:21:5052.79636-0.14608100°42km/h18579m3.8m/s-52.9°C3.7%0hPa2.6V08:30:0001:31:4100:00:00
BIOWL1-152026-09-02 00:21:4652.79646-0.14690103°42km/h18555m4.6m/s-52.8°C0%0hPa2.6V18:12:1501:31:3600:00:00
DM0DOS-112026-09-02 00:21:4352.79658-0.14770106°38km/h18533m5.4m/s-52.6°C3.6%0hPa2.6V08:30:0001:31:3100:00:00
BIOWL1-152026-09-02 00:21:3452.79716-0.15069109°27km/h18421m3.7m/s-52.2°C0%0hPa2.6V18:12:1501:31:0700:00:00
DM0DOS-112026-09-02 00:21:2952.79684-0.14903103°33km/h18486m3.7m/s-52.6°C3.7%0hPa2.6V08:30:0001:31:2100:00:00
BIOWL1-152026-09-02 00:21:2352.79718-0.15080110°26km/h18416m5.4m/s-52.2°C0%0hPa2.6V18:12:1501:31:0600:00:00
DM0DOS-112026-09-02 00:21:1352.79731-0.15130109°24km/h18392m5.8m/s-52°C3.6%0hPa2.6V08:30:0001:31:0100:00:00
BIOWL1-152026-09-02 00:21:1052.79742-0.15183112°20km/h18364m4.8m/s0°C0%0hPa2.7V18:12:1501:30:5500:00:00
DM0DOS-112026-09-02 00:21:0352.79751-0.15216111°24km/h18345m4.3m/s-51.8°C3.5%0hPa2.6V08:30:0001:30:5100:00:00
BIOWL1-152026-09-02 00:20:5552.79756-0.15247101°29km/h18331m4.8m/s0°C0%0hPa2.6V18:12:1501:30:4800:00:00
DM0DOS-112026-09-02 00:20:5452.79763-0.15323108°24km/h18298m4.6m/s-51.9°C3.5%0hPa2.6V08:30:0001:30:4100:00:00
BIOWL1-152026-09-02 00:20:4552.79775-0.15358122°27km/h18279m6.1m/s0°C0%0hPa2.6V18:12:1501:30:3700:00:00
DM0DOS-112026-09-02 00:20:4452.79792-0.15439105°33km/h18250m4.6m/s-51.7°C3.5%0hPa2.6V08:30:0001:30:3100:00:00
BIOWL1-152026-09-02 00:20:3352.79816-0.15556114°38km/h18211m4.3m/s0°C0%0hPa2.6V18:12:1501:30:2300:00:00
BIOWL1-152026-09-02 00:20:2452.79844-0.15714106°44km/h18164m5.5m/s0°C0%0hPa2.6V18:12:1501:30:1300:00:00
DM0DOS-112026-09-02 00:20:2252.79853-0.15765106°38km/h18150m5.3m/s-51.1°C3.4%0hPa2.7V08:30:0001:30:1000:00:00
BIOWL1-152026-09-02 00:20:1652.79866-0.15842101°42km/h18128m3.8m/s0°C0%0hPa2.7V18:12:1501:30:0500:00:00
DM0DOS-112026-09-02 00:20:0252.79896-0.1610293°44km/h18062m4.3m/s-51.7°C3.4%0hPa2.7V08:30:0001:29:5000:00:00
BIOWL1-152026-09-02 00:20:0252.79892-0.1619784°47km/h18039m4.8m/s0°C0%0hPa2.7V18:12:1501:29:4500:00:00
BIOWL1-152026-09-02 00:19:5352.79891-0.1621786°47km/h18035m3.1m/s0°C0%0hPa2.7V18:12:1501:29:4400:00:00
DM0DOS-112026-09-02 00:19:5252.79887-0.1628888°42km/h18017m5.1m/s-52°C3.5%0hPa2.7V08:30:0001:29:4000:00:00
DM0DOS-112026-09-02 00:19:4252.79878-0.1646086°40km/h17973m3.6m/s-52°C3.5%0hPa2.7V08:30:0001:29:3000:00:00
DM0DOS-112026-09-02 00:19:3252.79881-0.1662798°38km/h17927m4.5m/s-51.9°C3.5%0hPa2.7V08:30:0001:29:2000:00:00
DM0DOS-112026-09-02 00:19:2252.79897-0.16787100°40km/h17882m5m/s-51.9°C3.5%0hPa2.7V08:30:0001:29:1000:00:00
DM0DOS-112026-09-02 00:19:0552.79941-0.17036102°40km/h17809m4.5m/s-52.2°C3.6%0hPa2.7V08:30:0001:28:5400:00:00
DM0DOS-112026-09-02 00:18:5552.79965-0.17210102°46km/h17763m4.2m/s-51.9°C3.5%0hPa2.7V08:30:0001:28:4400:00:00
DM0DOS-112026-09-02 00:18:4552.79978-0.1738399°44km/h17716m5.2m/s-51.7°C3.5%0hPa2.7V08:30:0001:28:3400:00:00
DM0DOS-112026-09-02 00:18:3552.79986-0.1756390°40km/h17667m4.5m/s-51.9°C3.5%0hPa2.7V08:30:0001:28:2400:00:00
DM0DOS-112026-09-02 00:18:2252.79979-0.1773773°38km/h17619m3.3m/s-51.8°C3.4%0hPa2.7V08:30:0001:28:1400:00:00
DM0DOS-112026-09-02 00:18:1552.79966-0.1790293°38km/h17571m5.3m/s-52.3°C3.6%0hPa2.7V08:30:0001:28:0400:00:00
DM0DOS-112026-09-02 00:18:0652.79961-0.1805494°40km/h17521m4.5m/s-52.4°C3.7%0hPa2.7V08:30:0001:27:5400:00:00
DM0DOS-112026-09-02 00:17:5552.79966-0.1822591°47km/h17470m5.6m/s-52°C3.6%0hPa2.7V08:30:0001:27:4400:00:00
DM0DOS-112026-09-02 00:17:4452.79977-0.1840199°44km/h17419m4.7m/s-52°C3.5%0hPa2.6V08:30:0001:27:3400:00:00
DM0DOS-112026-09-02 00:17:3552.79993-0.18588105°46km/h17366m5.4m/s-51.7°C3.4%0hPa2.6V08:30:0001:27:2400:00:00
DM0DOS-112026-09-02 00:17:2452.80018-0.18785105°51km/h17313m4.9m/s-52°C3.5%0hPa2.6V08:30:0001:27:1400:00:00
DM0DOS-112026-09-02 00:17:1452.80054-0.19007103°57km/h17261m3.9m/s-52.1°C3.6%0hPa2.6V08:30:0001:27:0400:00:00
DM0DOS-112026-09-02 00:17:0552.80084-0.1925498°64km/h17209m5.4m/s-52.2°C3.6%0hPa2.6V08:30:0001:26:5400:00:00
DM0DOS-112026-09-02 00:16:5652.80106-0.1948598°58km/h17157m5.3m/s-52.1°C3.5%0hPa2.6V08:30:0001:26:4400:00:00
DM0DOS-112026-09-02 00:16:4552.80117-0.1971597°51km/h17102m4.5m/s-52.2°C3.5%0hPa2.7V08:30:0001:26:3400:00:00
DM0DOS-112026-09-02 00:16:3452.80127-0.1993091°49km/h17049m4.3m/s-52.6°C3.6%0hPa2.7V08:30:0001:26:2400:00:00
DM0DOS-112026-09-02 00:16:2452.80120-0.2014283°49km/h16996m5.7m/s-52.7°C3.7%0hPa2.6V08:30:0001:26:1400:00:00
DM0DOS-112026-09-02 00:15:5052.80115-0.2075596°49km/h16834m5.3m/s-52.6°C3.7%0hPa2.7V08:30:0001:25:4200:00:00
DM0DOS-112026-09-02 00:15:3452.80134-0.2117488°57km/h16743m4.8m/s-52.4°C3.7%0hPa2.6V08:30:0001:25:2300:00:00
DM0DOS-112026-09-02 00:15:2552.80130-0.2141393°55km/h16697m5.1m/s-52.5°C3.7%0hPa2.6V08:30:0001:25:1300:00:00
DM0DOS-112026-09-02 00:15:1552.80125-0.2163487°57km/h16651m5.1m/s-52.8°C3.8%0hPa2.7V08:30:0001:25:0300:00:00
DM0DOS-112026-09-02 00:15:0552.80120-0.2184781°49km/h16606m4.9m/s-52.8°C3.8%0hPa2.7V08:30:0001:24:5300:00:00
DM0DOS-112026-09-02 00:14:5552.80113-0.2205092°44km/h16561m4.1m/s-52.8°C3.8%0hPa2.6V08:30:0001:24:4300:00:00
DM0DOS-112026-09-02 00:14:4552.80105-0.2224284°44km/h16516m3.8m/s-52.8°C3.9%0hPa2.6V08:30:0001:24:3300:00:00
DM0DOS-112026-09-02 00:14:3552.80098-0.2240483°38km/h16471m4.6m/s-52.5°C3.7%0hPa2.7V08:30:0001:24:2300:00:00
DM0DOS-112026-09-02 00:14:2552.80099-0.2258697°44km/h16426m4m/s0°C0%0hPa2.6V08:30:0001:24:1300:00:00
DM0DOS-112026-09-02 00:14:1252.80106-0.2277497°51km/h16380m3.6m/s0°C0%0hPa2.6V00:00:0001:24:0300:00:00
DM0DOS-112026-09-02 00:14:0552.80116-0.2297993°57km/h16337m4.2m/s0°C0%0hPa2.7V00:00:0001:23:5300:00:00
DM0DOS-112026-09-02 00:13:5452.80121-0.2322195°51km/h16290m4m/s0°C0%0hPa2.7V00:00:0001:23:4200:00:00
DM0DOS-112026-09-02 00:13:4452.80134-0.2342695°46km/h16247m5.2m/s0°C0%0hPa2.6V00:00:0001:23:3200:00:00


GPX KML Map

© wettersonde.net (DO2JMG) - 2026  -  -